<gpx creator="Cyclotour.ca" version="1.1" xmlns:gpsies="http://www.gpsies.com/GPX/1/0" xmlns:xsi="http://www.w3.org/2001/XMLSchema-instance" xmlns="http://www.topografix.com/GPX/1/1" xsi:schemaLocation="http://www.topografix.com/GPX/1/1 http://www.topografix.com/GPX/1/1/gpx.xsd http://www.gpsies.com/GPX/1/0 http://www.gpsies.com/gpsies.xsd">
<trk>
<name>St Luc - Ste Genevieve</name>
<trkseg>
<trkpt lat="46.496710000" lon="-72.419510000">
<ele>0</ele>
<time>2026-09-04T06:30:59Z</time>
</trkpt>
<trkpt lat="46.497070000" lon="-72.420220000">
<ele>0</ele>
<time>2026-09-04T06:31:00Z</time>
</trkpt>
<trkpt lat="46.497090000" lon="-72.420350000">
<ele>0</ele>
<time>2026-09-04T06:31:01Z</time>
</trkpt>
<trkpt lat="46.496790000" lon="-72.420800000">
<ele>0</ele>
<time>2026-09-04T06:31:02Z</time>
</trkpt>
<trkpt lat="46.496920000" lon="-72.421010000">
<ele>0</ele>
<time>2026-09-04T06:31:03Z</time>
</trkpt>
<trkpt lat="46.496920000" lon="-72.421010000">
<ele>0</ele>
<time>2026-09-04T06:31:04Z</time>
</trkpt>
<trkpt lat="46.497310000" lon="-72.421610000">
<ele>0</ele>
<time>2026-09-04T06:31:05Z</time>
</trkpt>
<trkpt lat="46.499350000" lon="-72.424660000">
<ele>0</ele>
<time>2026-09-04T06:31:06Z</time>
</trkpt>
<trkpt lat="46.499410000" lon="-72.424740000">
<ele>0</ele>
<time>2026-09-04T06:31:07Z</time>
</trkpt>
<trkpt lat="46.500060000" lon="-72.425700000">
<ele>0</ele>
<time>2026-09-04T06:31:08Z</time>
</trkpt>
<trkpt lat="46.500540000" lon="-72.426460000">
<ele>0</ele>
<time>2026-09-04T06:31:09Z</time>
</trkpt>
<trkpt lat="46.500620000" lon="-72.426600000">
<ele>0</ele>
<time>2026-09-04T06:31:10Z</time>
</trkpt>
<trkpt lat="46.500970000" lon="-72.427260000">
<ele>0</ele>
<time>2026-09-04T06:31:11Z</time>
</trkpt>
<trkpt lat="46.501770000" lon="-72.428840000">
<ele>0</ele>
<time>2026-09-04T06:31:12Z</time>
</trkpt>
<trkpt lat="46.502510000" lon="-72.430260000">
<ele>0</ele>
<time>2026-09-04T06:31:13Z</time>
</trkpt>
<trkpt lat="46.503160000" lon="-72.431410000">
<ele>0</ele>
<time>2026-09-04T06:31:14Z</time>
</trkpt>
<trkpt lat="46.506330000" lon="-72.436650000">
<ele>0</ele>
<time>2026-09-04T06:31:15Z</time>
</trkpt>
<trkpt lat="46.508610000" lon="-72.440440000">
<ele>0</ele>
<time>2026-09-04T06:31:16Z</time>
</trkpt>
<trkpt lat="46.509170000" lon="-72.441360000">
<ele>0</ele>
<time>2026-09-04T06:31:17Z</time>
</trkpt>
<trkpt lat="46.509520000" lon="-72.441950000">
<ele>0</ele>
<time>2026-09-04T06:31:18Z</time>
</trkpt>
<trkpt lat="46.509900000" lon="-72.441470000">
<ele>0</ele>
<time>2026-09-04T06:31:19Z</time>
</trkpt>
<trkpt lat="46.510200000" lon="-72.441090000">
<ele>0</ele>
<time>2026-09-04T06:31:20Z</time>
</trkpt>
<trkpt lat="46.510470000" lon="-72.440740000">
<ele>0</ele>
<time>2026-09-04T06:31:21Z</time>
</trkpt>
<trkpt lat="46.511280000" lon="-72.439710000">
<ele>0</ele>
<time>2026-09-04T06:31:22Z</time>
</trkpt>
<trkpt lat="46.511900000" lon="-72.438930000">
<ele>0</ele>
<time>2026-09-04T06:31:23Z</time>
</trkpt>
<trkpt lat="46.511900000" lon="-72.438930000">
<ele>0</ele>
<time>2026-09-04T06:31:24Z</time>
</trkpt>
<trkpt lat="46.513980000" lon="-72.436240000">
<ele>0</ele>
<time>2026-09-04T06:31:25Z</time>
</trkpt>
<trkpt lat="46.516780000" lon="-72.432560000">
<ele>0</ele>
<time>2026-09-04T06:31:26Z</time>
</trkpt>
<trkpt lat="46.516940000" lon="-72.432340000">
<ele>0</ele>
<time>2026-09-04T06:31:27Z</time>
</trkpt>
<trkpt lat="46.516940000" lon="-72.432340000">
<ele>0</ele>
<time>2026-09-04T06:31:28Z</time>
</trkpt>
<trkpt lat="46.517550000" lon="-72.431520000">
<ele>0</ele>
<time>2026-09-04T06:31:29Z</time>
</trkpt>
<trkpt lat="46.517800000" lon="-72.431100000">
<ele>0</ele>
<time>2026-09-04T06:31:30Z</time>
</trkpt>
<trkpt lat="46.518160000" lon="-72.430510000">
<ele>0</ele>
<time>2026-09-04T06:31:31Z</time>
</trkpt>
<trkpt lat="46.518860000" lon="-72.429330000">
<ele>0</ele>
<time>2026-09-04T06:31:32Z</time>
</trkpt>
<trkpt lat="46.519880000" lon="-72.427860000">
<ele>0</ele>
<time>2026-09-04T06:31:33Z</time>
</trkpt>
<trkpt lat="46.520910000" lon="-72.426390000">
<ele>0</ele>
<time>2026-09-04T06:31:34Z</time>
</trkpt>
<trkpt lat="46.521670000" lon="-72.425290000">
<ele>0</ele>
<time>2026-09-04T06:31:35Z</time>
</trkpt>
<trkpt lat="46.524070000" lon="-72.421870000">
<ele>0</ele>
<time>2026-09-04T06:31:36Z</time>
</trkpt>
<trkpt lat="46.524760000" lon="-72.420900000">
<ele>0</ele>
<time>2026-09-04T06:31:37Z</time>
</trkpt>
<trkpt lat="46.526200000" lon="-72.418860000">
<ele>0</ele>
<time>2026-09-04T06:31:38Z</time>
</trkpt>
<trkpt lat="46.526200000" lon="-72.418860000">
<ele>0</ele>
<time>2026-09-04T06:31:39Z</time>
</trkpt>
<trkpt lat="46.528190000" lon="-72.416020000">
<ele>0</ele>
<time>2026-09-04T06:31:40Z</time>
</trkpt>
<trkpt lat="46.528190000" lon="-72.416020000">
<ele>0</ele>
<time>2026-09-04T06:31:41Z</time>
</trkpt>
<trkpt lat="46.529130000" lon="-72.414680000">
<ele>0</ele>
<time>2026-09-04T06:31:42Z</time>
</trkpt>
<trkpt lat="46.529210000" lon="-72.414560000">
<ele>0</ele>
<time>2026-09-04T06:31:43Z</time>
</trkpt>
<trkpt lat="46.529730000" lon="-72.413820000">
<ele>0</ele>
<time>2026-09-04T06:31:44Z</time>
</trkpt>
<trkpt lat="46.528440000" lon="-72.411990000">
<ele>0</ele>
<time>2026-09-04T06:31:45Z</time>
</trkpt>
<trkpt lat="46.528330000" lon="-72.411840000">
<ele>0</ele>
<time>2026-09-04T06:31:46Z</time>
</trkpt>
<trkpt lat="46.528330000" lon="-72.411840000">
<ele>0</ele>
<time>2026-09-04T06:31:47Z</time>
</trkpt>
<trkpt lat="46.525490000" lon="-72.407780000">
<ele>0</ele>
<time>2026-09-04T06:31:48Z</time>
</trkpt>
<trkpt lat="46.525200000" lon="-72.407250000">
<ele>0</ele>
<time>2026-09-04T06:31:49Z</time>
</trkpt>
<trkpt lat="46.525030000" lon="-72.406780000">
<ele>0</ele>
<time>2026-09-04T06:31:50Z</time>
</trkpt>
<trkpt lat="46.524970000" lon="-72.406430000">
<ele>0</ele>
<time>2026-09-04T06:31:51Z</time>
</trkpt>
<trkpt lat="46.524920000" lon="-72.406160000">
<ele>0</ele>
<time>2026-09-04T06:31:52Z</time>
</trkpt>
<trkpt lat="46.524910000" lon="-72.405660000">
<ele>0</ele>
<time>2026-09-04T06:31:53Z</time>
</trkpt>
<trkpt lat="46.524920000" lon="-72.405400000">
<ele>0</ele>
<time>2026-09-04T06:31:54Z</time>
</trkpt>
<trkpt lat="46.524970000" lon="-72.404980000">
<ele>0</ele>
<time>2026-09-04T06:31:55Z</time>
</trkpt>
<trkpt lat="46.525150000" lon="-72.404340000">
<ele>0</ele>
<time>2026-09-04T06:31:56Z</time>
</trkpt>
<trkpt lat="46.525430000" lon="-72.403790000">
<ele>0</ele>
<time>2026-09-04T06:31:57Z</time>
</trkpt>
<trkpt lat="46.526290000" lon="-72.402460000">
<ele>0</ele>
<time>2026-09-04T06:31:58Z</time>
</trkpt>
<trkpt lat="46.529770000" lon="-72.397240000">
<ele>0</ele>
<time>2026-09-04T06:31:59Z</time>
</trkpt>
<trkpt lat="46.530620000" lon="-72.395840000">
<ele>0</ele>
<time>2026-09-04T06:32:00Z</time>
</trkpt>
<trkpt lat="46.530840000" lon="-72.395370000">
<ele>0</ele>
<time>2026-09-04T06:32:01Z</time>
</trkpt>
<trkpt lat="46.531240000" lon="-72.394500000">
<ele>0</ele>
<time>2026-09-04T06:32:02Z</time>
</trkpt>
<trkpt lat="46.531550000" lon="-72.393630000">
<ele>0</ele>
<time>2026-09-04T06:32:03Z</time>
</trkpt>
<trkpt lat="46.531900000" lon="-72.392540000">
<ele>0</ele>
<time>2026-09-04T06:32:04Z</time>
</trkpt>
<trkpt lat="46.532160000" lon="-72.391500000">
<ele>0</ele>
<time>2026-09-04T06:32:05Z</time>
</trkpt>
<trkpt lat="46.532440000" lon="-72.390100000">
<ele>0</ele>
<time>2026-09-04T06:32:06Z</time>
</trkpt>
<trkpt lat="46.532560000" lon="-72.389170000">
<ele>0</ele>
<time>2026-09-04T06:32:07Z</time>
</trkpt>
<trkpt lat="46.532770000" lon="-72.387110000">
<ele>0</ele>
<time>2026-09-04T06:32:08Z</time>
</trkpt>
<trkpt lat="46.532960000" lon="-72.384240000">
<ele>0</ele>
<time>2026-09-04T06:32:09Z</time>
</trkpt>
<trkpt lat="46.532980000" lon="-72.383190000">
<ele>0</ele>
<time>2026-09-04T06:32:10Z</time>
</trkpt>
<trkpt lat="46.533030000" lon="-72.380320000">
<ele>0</ele>
<time>2026-09-04T06:32:11Z</time>
</trkpt>
<trkpt lat="46.533060000" lon="-72.379880000">
<ele>0</ele>
<time>2026-09-04T06:32:12Z</time>
</trkpt>
<trkpt lat="46.533060000" lon="-72.379880000">
<ele>0</ele>
<time>2026-09-04T06:32:13Z</time>
</trkpt>
<trkpt lat="46.533070000" lon="-72.379780000">
<ele>0</ele>
<time>2026-09-04T06:32:14Z</time>
</trkpt>
<trkpt lat="46.533200000" lon="-72.379040000">
<ele>0</ele>
<time>2026-09-04T06:32:15Z</time>
</trkpt>
<trkpt lat="46.533590000" lon="-72.377020000">
<ele>0</ele>
<time>2026-09-04T06:32:16Z</time>
</trkpt>
<trkpt lat="46.533810000" lon="-72.375920000">
<ele>0</ele>
<time>2026-09-04T06:32:17Z</time>
</trkpt>
<trkpt lat="46.533870000" lon="-72.375340000">
<ele>0</ele>
<time>2026-09-04T06:32:18Z</time>
</trkpt>
<trkpt lat="46.533920000" lon="-72.374680000">
<ele>0</ele>
<time>2026-09-04T06:32:19Z</time>
</trkpt>
<trkpt lat="46.533960000" lon="-72.373140000">
<ele>0</ele>
<time>2026-09-04T06:32:20Z</time>
</trkpt>
<trkpt lat="46.534020000" lon="-72.370310000">
<ele>0</ele>
<time>2026-09-04T06:32:21Z</time>
</trkpt>
<trkpt lat="46.534020000" lon="-72.369130000">
<ele>0</ele>
<time>2026-09-04T06:32:22Z</time>
</trkpt>
<trkpt lat="46.533910000" lon="-72.368130000">
<ele>0</ele>
<time>2026-09-04T06:32:23Z</time>
</trkpt>
<trkpt lat="46.533750000" lon="-72.367340000">
<ele>0</ele>
<time>2026-09-04T06:32:24Z</time>
</trkpt>
<trkpt lat="46.533610000" lon="-72.366780000">
<ele>0</ele>
<time>2026-09-04T06:32:25Z</time>
</trkpt>
<trkpt lat="46.533490000" lon="-72.366470000">
<ele>0</ele>
<time>2026-09-04T06:32:26Z</time>
</trkpt>
<trkpt lat="46.533310000" lon="-72.366030000">
<ele>0</ele>
<time>2026-09-04T06:32:27Z</time>
</trkpt>
<trkpt lat="46.533180000" lon="-72.365750000">
<ele>0</ele>
<time>2026-09-04T06:32:28Z</time>
</trkpt>
<trkpt lat="46.532960000" lon="-72.365340000">
<ele>0</ele>
<time>2026-09-04T06:32:29Z</time>
</trkpt>
<trkpt lat="46.532730000" lon="-72.364940000">
<ele>0</ele>
<time>2026-09-04T06:32:30Z</time>
</trkpt>
<trkpt lat="46.532310000" lon="-72.364430000">
<ele>0</ele>
<time>2026-09-04T06:32:31Z</time>
</trkpt>
<trkpt lat="46.531340000" lon="-72.363300000">
<ele>0</ele>
<time>2026-09-04T06:32:32Z</time>
</trkpt>
<trkpt lat="46.531060000" lon="-72.362990000">
<ele>0</ele>
<time>2026-09-04T06:32:33Z</time>
</trkpt>
<trkpt lat="46.530900000" lon="-72.362810000">
<ele>0</ele>
<time>2026-09-04T06:32:34Z</time>
</trkpt>
<trkpt lat="46.529890000" lon="-72.361680000">
<ele>0</ele>
<time>2026-09-04T06:32:35Z</time>
</trkpt>
<trkpt lat="46.529620000" lon="-72.361370000">
<ele>0</ele>
<time>2026-09-04T06:32:36Z</time>
</trkpt>
<trkpt lat="46.529090000" lon="-72.360690000">
<ele>0</ele>
<time>2026-09-04T06:32:37Z</time>
</trkpt>
<trkpt lat="46.528770000" lon="-72.360100000">
<ele>0</ele>
<time>2026-09-04T06:32:38Z</time>
</trkpt>
<trkpt lat="46.528550000" lon="-72.359710000">
<ele>0</ele>
<time>2026-09-04T06:32:39Z</time>
</trkpt>
<trkpt lat="46.528350000" lon="-72.359210000">
<ele>0</ele>
<time>2026-09-04T06:32:40Z</time>
</trkpt>
<trkpt lat="46.528280000" lon="-72.359000000">
<ele>0</ele>
<time>2026-09-04T06:32:41Z</time>
</trkpt>
<trkpt lat="46.528090000" lon="-72.358440000">
<ele>0</ele>
<time>2026-09-04T06:32:42Z</time>
</trkpt>
<trkpt lat="46.527910000" lon="-72.357760000">
<ele>0</ele>
<time>2026-09-04T06:32:43Z</time>
</trkpt>
<trkpt lat="46.527810000" lon="-72.357260000">
<ele>0</ele>
<time>2026-09-04T06:32:44Z</time>
</trkpt>
<trkpt lat="46.527700000" lon="-72.356580000">
<ele>0</ele>
<time>2026-09-04T06:32:45Z</time>
</trkpt>
<trkpt lat="46.527660000" lon="-72.355900000">
<ele>0</ele>
<time>2026-09-04T06:32:46Z</time>
</trkpt>
<trkpt lat="46.527670000" lon="-72.355260000">
<ele>0</ele>
<time>2026-09-04T06:32:47Z</time>
</trkpt>
<trkpt lat="46.527740000" lon="-72.353960000">
<ele>0</ele>
<time>2026-09-04T06:32:48Z</time>
</trkpt>
<trkpt lat="46.527840000" lon="-72.351870000">
<ele>0</ele>
<time>2026-09-04T06:32:49Z</time>
</trkpt>
<trkpt lat="46.527830000" lon="-72.351110000">
<ele>0</ele>
<time>2026-09-04T06:32:50Z</time>
</trkpt>
<trkpt lat="46.527750000" lon="-72.349840000">
<ele>0</ele>
<time>2026-09-04T06:32:51Z</time>
</trkpt>
<trkpt lat="46.527620000" lon="-72.348690000">
<ele>0</ele>
<time>2026-09-04T06:32:52Z</time>
</trkpt>
<trkpt lat="46.527550000" lon="-72.348210000">
<ele>0</ele>
<time>2026-09-04T06:32:53Z</time>
</trkpt>
<trkpt lat="46.527470000" lon="-72.347540000">
<ele>0</ele>
<time>2026-09-04T06:32:54Z</time>
</trkpt>
<trkpt lat="46.527400000" lon="-72.346340000">
<ele>0</ele>
<time>2026-09-04T06:32:55Z</time>
</trkpt>
<trkpt lat="46.527090000" lon="-72.344140000">
<ele>0</ele>
<time>2026-09-04T06:32:56Z</time>
</trkpt>
<trkpt lat="46.527010000" lon="-72.343590000">
<ele>0</ele>
<time>2026-09-04T06:32:57Z</time>
</trkpt>
<trkpt lat="46.526970000" lon="-72.343040000">
<ele>0</ele>
<time>2026-09-04T06:32:58Z</time>
</trkpt>
<trkpt lat="46.526930000" lon="-72.342570000">
<ele>0</ele>
<time>2026-09-04T06:32:59Z</time>
</trkpt>
<trkpt lat="46.526880000" lon="-72.341930000">
<ele>0</ele>
<time>2026-09-04T06:33:00Z</time>
</trkpt>
<trkpt lat="46.526870000" lon="-72.341160000">
<ele>0</ele>
<time>2026-09-04T06:33:01Z</time>
</trkpt>
<trkpt lat="46.526860000" lon="-72.340900000">
<ele>0</ele>
<time>2026-09-04T06:33:02Z</time>
</trkpt>
<trkpt lat="46.526710000" lon="-72.339470000">
<ele>0</ele>
<time>2026-09-04T06:33:03Z</time>
</trkpt>
<trkpt lat="46.527100000" lon="-72.339440000">
<ele>0</ele>
<time>2026-09-04T06:33:04Z</time>
</trkpt>
<trkpt lat="46.527100000" lon="-72.339450000">
<ele>0</ele>
<time>2026-09-04T06:33:05Z</time>
</trkpt>
<trkpt lat="46.528300000" lon="-72.339380000">
<ele>0</ele>
<time>2026-09-04T06:33:06Z</time>
</trkpt>
<trkpt lat="46.528710000" lon="-72.339360000">
<ele>0</ele>
<time>2026-09-04T06:33:07Z</time>
</trkpt>
<trkpt lat="46.529370000" lon="-72.339320000">
<ele>0</ele>
<time>2026-09-04T06:33:08Z</time>
</trkpt>
<trkpt lat="46.529600000" lon="-72.339300000">
<ele>0</ele>
<time>2026-09-04T06:33:09Z</time>
</trkpt>
<trkpt lat="46.529600000" lon="-72.339190000">
<ele>0</ele>
<time>2026-09-04T06:33:10Z</time>
</trkpt>
<trkpt lat="46.529590000" lon="-72.339080000">
<ele>0</ele>
<time>2026-09-04T06:33:11Z</time>
</trkpt>
<trkpt lat="46.529550000" lon="-72.339000000">
<ele>0</ele>
<time>2026-09-04T06:33:12Z</time>
</trkpt>
<trkpt lat="46.529490000" lon="-72.338890000">
<ele>0</ele>
<time>2026-09-04T06:33:13Z</time>
</trkpt>
<trkpt lat="46.529450000" lon="-72.338740000">
<ele>0</ele>
<time>2026-09-04T06:33:14Z</time>
</trkpt>
<trkpt lat="46.529400000" lon="-72.338490000">
<ele>0</ele>
<time>2026-09-04T06:33:15Z</time>
</trkpt>
<trkpt lat="46.529380000" lon="-72.338390000">
<ele>0</ele>
<time>2026-09-04T06:33:16Z</time>
</trkpt>
<trkpt lat="46.529380000" lon="-72.338390000">
<ele>0</ele>
<time>2026-09-04T06:33:17Z</time>
</trkpt>
<trkpt lat="46.529170000" lon="-72.337430000">
<ele>0</ele>
<time>2026-09-04T06:33:18Z</time>
</trkpt>
<trkpt lat="46.529060000" lon="-72.336650000">
<ele>0</ele>
<time>2026-09-04T06:33:19Z</time>
</trkpt>
<trkpt lat="46.528980000" lon="-72.335400000">
<ele>0</ele>
<time>2026-09-04T06:33:20Z</time>
</trkpt>
<trkpt lat="46.529010000" lon="-72.333980000">
<ele>0</ele>
<time>2026-09-04T06:33:21Z</time>
</trkpt>
<trkpt lat="46.529040000" lon="-72.332670000">
<ele>0</ele>
<time>2026-09-04T06:33:22Z</time>
</trkpt>
<trkpt lat="46.529040000" lon="-72.331100000">
<ele>0</ele>
<time>2026-09-04T06:33:23Z</time>
</trkpt>
<trkpt lat="46.528950000" lon="-72.329660000">
<ele>0</ele>
<time>2026-09-04T06:33:24Z</time>
</trkpt>
<trkpt lat="46.528910000" lon="-72.329280000">
<ele>0</ele>
<time>2026-09-04T06:33:25Z</time>
</trkpt>
<trkpt lat="46.528840000" lon="-72.328670000">
<ele>0</ele>
<time>2026-09-04T06:33:26Z</time>
</trkpt>
<trkpt lat="46.528650000" lon="-72.327730000">
<ele>0</ele>
<time>2026-09-04T06:33:27Z</time>
</trkpt>
<trkpt lat="46.528540000" lon="-72.327230000">
<ele>0</ele>
<time>2026-09-04T06:33:28Z</time>
</trkpt>
<trkpt lat="46.528140000" lon="-72.325230000">
<ele>0</ele>
<time>2026-09-04T06:33:29Z</time>
</trkpt>
<trkpt lat="46.527680000" lon="-72.322970000">
<ele>0</ele>
<time>2026-09-04T06:33:30Z</time>
</trkpt>
<trkpt lat="46.527520000" lon="-72.322220000">
<ele>0</ele>
<time>2026-09-04T06:33:31Z</time>
</trkpt>
<trkpt lat="46.527430000" lon="-72.321750000">
<ele>0</ele>
<time>2026-09-04T06:33:32Z</time>
</trkpt>
<trkpt lat="46.526990000" lon="-72.320000000">
<ele>0</ele>
<time>2026-09-04T06:33:33Z</time>
</trkpt>
<trkpt lat="46.526810000" lon="-72.319260000">
<ele>0</ele>
<time>2026-09-04T06:33:34Z</time>
</trkpt>
<trkpt lat="46.526680000" lon="-72.318770000">
<ele>0</ele>
<time>2026-09-04T06:33:35Z</time>
</trkpt>
<trkpt lat="46.525970000" lon="-72.316090000">
<ele>0</ele>
<time>2026-09-04T06:33:36Z</time>
</trkpt>
<trkpt lat="46.525810000" lon="-72.315340000">
<ele>0</ele>
<time>2026-09-04T06:33:37Z</time>
</trkpt>
<trkpt lat="46.525710000" lon="-72.314570000">
<ele>0</ele>
<time>2026-09-04T06:33:38Z</time>
</trkpt>
<trkpt lat="46.525680000" lon="-72.313260000">
<ele>0</ele>
<time>2026-09-04T06:33:39Z</time>
</trkpt>
<trkpt lat="46.525670000" lon="-72.312260000">
<ele>0</ele>
<time>2026-09-04T06:33:40Z</time>
</trkpt>
<trkpt lat="46.525670000" lon="-72.311170000">
<ele>0</ele>
<time>2026-09-04T06:33:41Z</time>
</trkpt>
<trkpt lat="46.525660000" lon="-72.310600000">
<ele>0</ele>
<time>2026-09-04T06:33:42Z</time>
</trkpt>
<trkpt lat="46.525610000" lon="-72.310140000">
<ele>0</ele>
<time>2026-09-04T06:33:43Z</time>
</trkpt>
<trkpt lat="46.525460000" lon="-72.309370000">
<ele>0</ele>
<time>2026-09-04T06:33:44Z</time>
</trkpt>
<trkpt lat="46.525340000" lon="-72.308890000">
<ele>0</ele>
<time>2026-09-04T06:33:45Z</time>
</trkpt>
<trkpt lat="46.525040000" lon="-72.307650000">
<ele>0</ele>
<time>2026-09-04T06:33:46Z</time>
</trkpt>
<trkpt lat="46.524950000" lon="-72.307150000">
<ele>0</ele>
<time>2026-09-04T06:33:47Z</time>
</trkpt>
<trkpt lat="46.524890000" lon="-72.306630000">
<ele>0</ele>
<time>2026-09-04T06:33:48Z</time>
</trkpt>
<trkpt lat="46.524840000" lon="-72.305850000">
<ele>0</ele>
<time>2026-09-04T06:33:49Z</time>
</trkpt>
<trkpt lat="46.524810000" lon="-72.304810000">
<ele>0</ele>
<time>2026-09-04T06:33:50Z</time>
</trkpt>
<trkpt lat="46.524790000" lon="-72.304140000">
<ele>0</ele>
<time>2026-09-04T06:33:51Z</time>
</trkpt>
<trkpt lat="46.524750000" lon="-72.303770000">
<ele>0</ele>
<time>2026-09-04T06:33:52Z</time>
</trkpt>
<trkpt lat="46.524720000" lon="-72.303510000">
<ele>0</ele>
<time>2026-09-04T06:33:53Z</time>
</trkpt>
<trkpt lat="46.524610000" lon="-72.303020000">
<ele>0</ele>
<time>2026-09-04T06:33:54Z</time>
</trkpt>
<trkpt lat="46.524520000" lon="-72.302730000">
<ele>0</ele>
<time>2026-09-04T06:33:55Z</time>
</trkpt>
<trkpt lat="46.524030000" lon="-72.301700000">
<ele>0</ele>
<time>2026-09-04T06:33:56Z</time>
</trkpt>
<trkpt lat="46.523680000" lon="-72.300940000">
<ele>0</ele>
<time>2026-09-04T06:33:57Z</time>
</trkpt>
<trkpt lat="46.523450000" lon="-72.300200000">
<ele>0</ele>
<time>2026-09-04T06:33:58Z</time>
</trkpt>
<trkpt lat="46.523350000" lon="-72.299490000">
<ele>0</ele>
<time>2026-09-04T06:33:59Z</time>
</trkpt>
<trkpt lat="46.523180000" lon="-72.297510000">
<ele>0</ele>
<time>2026-09-04T06:34:00Z</time>
</trkpt>
<trkpt lat="46.522940000" lon="-72.294660000">
<ele>0</ele>
<time>2026-09-04T06:34:01Z</time>
</trkpt>
<trkpt lat="46.522900000" lon="-72.294120000">
<ele>0</ele>
<time>2026-09-04T06:34:02Z</time>
</trkpt>
<trkpt lat="46.522610000" lon="-72.292090000">
<ele>0</ele>
<time>2026-09-04T06:34:03Z</time>
</trkpt>
<trkpt lat="46.522280000" lon="-72.290140000">
<ele>0</ele>
<time>2026-09-04T06:34:04Z</time>
</trkpt>
<trkpt lat="46.522150000" lon="-72.288950000">
<ele>0</ele>
<time>2026-09-04T06:34:05Z</time>
</trkpt>
<trkpt lat="46.522130000" lon="-72.288070000">
<ele>0</ele>
<time>2026-09-04T06:34:06Z</time>
</trkpt>
<trkpt lat="46.522140000" lon="-72.287580000">
<ele>0</ele>
<time>2026-09-04T06:34:07Z</time>
</trkpt>
<trkpt lat="46.522190000" lon="-72.286430000">
<ele>0</ele>
<time>2026-09-04T06:34:08Z</time>
</trkpt>
<trkpt lat="46.522250000" lon="-72.285870000">
<ele>0</ele>
<time>2026-09-04T06:34:09Z</time>
</trkpt>
<trkpt lat="46.522330000" lon="-72.285260000">
<ele>0</ele>
<time>2026-09-04T06:34:10Z</time>
</trkpt>
<trkpt lat="46.522410000" lon="-72.284880000">
<ele>0</ele>
<time>2026-09-04T06:34:11Z</time>
</trkpt>
<trkpt lat="46.522570000" lon="-72.284140000">
<ele>0</ele>
<time>2026-09-04T06:34:12Z</time>
</trkpt>
<trkpt lat="46.522880000" lon="-72.282910000">
<ele>0</ele>
<time>2026-09-04T06:34:13Z</time>
</trkpt>
<trkpt lat="46.523210000" lon="-72.281690000">
<ele>0</ele>
<time>2026-09-04T06:34:14Z</time>
</trkpt>
<trkpt lat="46.523510000" lon="-72.280510000">
<ele>0</ele>
<time>2026-09-04T06:34:15Z</time>
</trkpt>
<trkpt lat="46.523780000" lon="-72.279220000">
<ele>0</ele>
<time>2026-09-04T06:34:16Z</time>
</trkpt>
<trkpt lat="46.523850000" lon="-72.278620000">
<ele>0</ele>
<time>2026-09-04T06:34:17Z</time>
</trkpt>
<trkpt lat="46.523850000" lon="-72.278620000">
<ele>0</ele>
<time>2026-09-04T06:34:18Z</time>
</trkpt>
<trkpt lat="46.524090000" lon="-72.276010000">
<ele>0</ele>
<time>2026-09-04T06:34:19Z</time>
</trkpt>
<trkpt lat="46.524130000" lon="-72.275100000">
<ele>0</ele>
<time>2026-09-04T06:34:20Z</time>
</trkpt>
<trkpt lat="46.524140000" lon="-72.274840000">
<ele>0</ele>
<time>2026-09-04T06:34:21Z</time>
</trkpt>
<trkpt lat="46.524100000" lon="-72.271700000">
<ele>0</ele>
<time>2026-09-04T06:34:22Z</time>
</trkpt>
<trkpt lat="46.524100000" lon="-72.269870000">
<ele>0</ele>
<time>2026-09-04T06:34:23Z</time>
</trkpt>
<trkpt lat="46.524120000" lon="-72.269090000">
<ele>0</ele>
<time>2026-09-04T06:34:24Z</time>
</trkpt>
<trkpt lat="46.524210000" lon="-72.267240000">
<ele>0</ele>
<time>2026-09-04T06:34:25Z</time>
</trkpt>
<trkpt lat="46.524320000" lon="-72.266230000">
<ele>0</ele>
<time>2026-09-04T06:34:26Z</time>
</trkpt>
<trkpt lat="46.524550000" lon="-72.264430000">
<ele>0</ele>
<time>2026-09-04T06:34:27Z</time>
</trkpt>
<trkpt lat="46.524680000" lon="-72.263140000">
<ele>0</ele>
<time>2026-09-04T06:34:28Z</time>
</trkpt>
<trkpt lat="46.524730000" lon="-72.262040000">
<ele>0</ele>
<time>2026-09-04T06:34:29Z</time>
</trkpt>
<trkpt lat="46.524710000" lon="-72.260720000">
<ele>0</ele>
<time>2026-09-04T06:34:30Z</time>
</trkpt>
<trkpt lat="46.524670000" lon="-72.260040000">
<ele>0</ele>
<time>2026-09-04T06:34:31Z</time>
</trkpt>
<trkpt lat="46.524580000" lon="-72.259270000">
<ele>0</ele>
<time>2026-09-04T06:34:32Z</time>
</trkpt>
<trkpt lat="46.524160000" lon="-72.256460000">
<ele>0</ele>
<time>2026-09-04T06:34:33Z</time>
</trkpt>
<trkpt lat="46.523960000" lon="-72.255270000">
<ele>0</ele>
<time>2026-09-04T06:34:34Z</time>
</trkpt>
<trkpt lat="46.523920000" lon="-72.254930000">
<ele>0</ele>
<time>2026-09-04T06:34:35Z</time>
</trkpt>
<trkpt lat="46.523730000" lon="-72.253610000">
<ele>0</ele>
<time>2026-09-04T06:34:36Z</time>
</trkpt>
<trkpt lat="46.523610000" lon="-72.252080000">
<ele>0</ele>
<time>2026-09-04T06:34:37Z</time>
</trkpt>
<trkpt lat="46.523580000" lon="-72.251190000">
<ele>0</ele>
<time>2026-09-04T06:34:38Z</time>
</trkpt>
<trkpt lat="46.523580000" lon="-72.249730000">
<ele>0</ele>
<time>2026-09-04T06:34:39Z</time>
</trkpt>
<trkpt lat="46.523620000" lon="-72.248970000">
<ele>0</ele>
<time>2026-09-04T06:34:40Z</time>
</trkpt>
<trkpt lat="46.523760000" lon="-72.247280000">
<ele>0</ele>
<time>2026-09-04T06:34:41Z</time>
</trkpt>
<trkpt lat="46.523840000" lon="-72.246500000">
<ele>0</ele>
<time>2026-09-04T06:34:42Z</time>
</trkpt>
<trkpt lat="46.523980000" lon="-72.244950000">
<ele>0</ele>
<time>2026-09-04T06:34:43Z</time>
</trkpt>
<trkpt lat="46.524000000" lon="-72.244000000">
<ele>0</ele>
<time>2026-09-04T06:34:44Z</time>
</trkpt>
<trkpt lat="46.523990000" lon="-72.243680000">
<ele>0</ele>
<time>2026-09-04T06:34:45Z</time>
</trkpt>
<trkpt lat="46.523980000" lon="-72.243530000">
<ele>0</ele>
<time>2026-09-04T06:34:46Z</time>
</trkpt>
<trkpt lat="46.523960000" lon="-72.243230000">
<ele>0</ele>
<time>2026-09-04T06:34:47Z</time>
</trkpt>
<trkpt lat="46.523950000" lon="-72.243190000">
<ele>0</ele>
<time>2026-09-04T06:34:48Z</time>
</trkpt>
<trkpt lat="46.523960000" lon="-72.242750000">
<ele>0</ele>
<time>2026-09-04T06:34:49Z</time>
</trkpt>
<trkpt lat="46.523920000" lon="-72.241740000">
<ele>0</ele>
<time>2026-09-04T06:34:50Z</time>
</trkpt>
<trkpt lat="46.523910000" lon="-72.241230000">
<ele>0</ele>
<time>2026-09-04T06:34:51Z</time>
</trkpt>
<trkpt lat="46.523910000" lon="-72.241060000">
<ele>0</ele>
<time>2026-09-04T06:34:52Z</time>
</trkpt>
<trkpt lat="46.523910000" lon="-72.241060000">
<ele>0</ele>
<time>2026-09-04T06:34:53Z</time>
</trkpt>
<trkpt lat="46.523920000" lon="-72.240770000">
<ele>0</ele>
<time>2026-09-04T06:34:54Z</time>
</trkpt>
<trkpt lat="46.524020000" lon="-72.239730000">
<ele>0</ele>
<time>2026-09-04T06:34:55Z</time>
</trkpt>
<trkpt lat="46.524100000" lon="-72.239220000">
<ele>0</ele>
<time>2026-09-04T06:34:56Z</time>
</trkpt>
<trkpt lat="46.524180000" lon="-72.238840000">
<ele>0</ele>
<time>2026-09-04T06:34:57Z</time>
</trkpt>
<trkpt lat="46.524290000" lon="-72.238460000">
<ele>0</ele>
<time>2026-09-04T06:34:58Z</time>
</trkpt>
<trkpt lat="46.524530000" lon="-72.237830000">
<ele>0</ele>
<time>2026-09-04T06:34:59Z</time>
</trkpt>
<trkpt lat="46.524700000" lon="-72.237500000">
<ele>0</ele>
<time>2026-09-04T06:35:00Z</time>
</trkpt>
<trkpt lat="46.525050000" lon="-72.236970000">
<ele>0</ele>
<time>2026-09-04T06:35:01Z</time>
</trkpt>
<trkpt lat="46.525300000" lon="-72.236680000">
<ele>0</ele>
<time>2026-09-04T06:35:02Z</time>
</trkpt>
<trkpt lat="46.525530000" lon="-72.236460000">
<ele>0</ele>
<time>2026-09-04T06:35:03Z</time>
</trkpt>
<trkpt lat="46.525880000" lon="-72.236220000">
<ele>0</ele>
<time>2026-09-04T06:35:04Z</time>
</trkpt>
<trkpt lat="46.526070000" lon="-72.236120000">
<ele>0</ele>
<time>2026-09-04T06:35:05Z</time>
</trkpt>
<trkpt lat="46.526320000" lon="-72.236010000">
<ele>0</ele>
<time>2026-09-04T06:35:06Z</time>
</trkpt>
<trkpt lat="46.526800000" lon="-72.235860000">
<ele>0</ele>
<time>2026-09-04T06:35:07Z</time>
</trkpt>
<trkpt lat="46.529410000" lon="-72.235090000">
<ele>0</ele>
<time>2026-09-04T06:35:08Z</time>
</trkpt>
<trkpt lat="46.534010000" lon="-72.233720000">
<ele>0</ele>
<time>2026-09-04T06:35:09Z</time>
</trkpt>
<trkpt lat="46.535630000" lon="-72.233230000">
<ele>0</ele>
<time>2026-09-04T06:35:10Z</time>
</trkpt>
<trkpt lat="46.536370000" lon="-72.232980000">
<ele>0</ele>
<time>2026-09-04T06:35:11Z</time>
</trkpt>
<trkpt lat="46.536800000" lon="-72.232770000">
<ele>0</ele>
<time>2026-09-04T06:35:12Z</time>
</trkpt>
<trkpt lat="46.537160000" lon="-72.232570000">
<ele>0</ele>
<time>2026-09-04T06:35:13Z</time>
</trkpt>
<trkpt lat="46.537490000" lon="-72.232310000">
<ele>0</ele>
<time>2026-09-04T06:35:14Z</time>
</trkpt>
<trkpt lat="46.538300000" lon="-72.231560000">
<ele>0</ele>
<time>2026-09-04T06:35:15Z</time>
</trkpt>
<trkpt lat="46.539750000" lon="-72.230200000">
<ele>0</ele>
<time>2026-09-04T06:35:16Z</time>
</trkpt>
<trkpt lat="46.540640000" lon="-72.229370000">
<ele>0</ele>
<time>2026-09-04T06:35:17Z</time>
</trkpt>
<trkpt lat="46.541720000" lon="-72.228380000">
<ele>0</ele>
<time>2026-09-04T06:35:18Z</time>
</trkpt>
<trkpt lat="46.543360000" lon="-72.227060000">
<ele>0</ele>
<time>2026-09-04T06:35:19Z</time>
</trkpt>
<trkpt lat="46.544160000" lon="-72.226410000">
<ele>0</ele>
<time>2026-09-04T06:35:20Z</time>
</trkpt>
<trkpt lat="46.544700000" lon="-72.225980000">
<ele>0</ele>
<time>2026-09-04T06:35:21Z</time>
</trkpt>
<trkpt lat="46.545190000" lon="-72.225640000">
<ele>0</ele>
<time>2026-09-04T06:35:22Z</time>
</trkpt>
<trkpt lat="46.545430000" lon="-72.225520000">
<ele>0</ele>
<time>2026-09-04T06:35:23Z</time>
</trkpt>
<trkpt lat="46.546070000" lon="-72.225290000">
<ele>0</ele>
<time>2026-09-04T06:35:24Z</time>
</trkpt>
<trkpt lat="46.546420000" lon="-72.225150000">
<ele>0</ele>
<time>2026-09-04T06:35:25Z</time>
</trkpt>
<trkpt lat="46.547310000" lon="-72.224890000">
<ele>0</ele>
<time>2026-09-04T06:35:26Z</time>
</trkpt>
<trkpt lat="46.548860000" lon="-72.224310000">
<ele>0</ele>
<time>2026-09-04T06:35:27Z</time>
</trkpt>
<trkpt lat="46.549240000" lon="-72.224170000">
<ele>0</ele>
<time>2026-09-04T06:35:28Z</time>
</trkpt>
<trkpt lat="46.550230000" lon="-72.223700000">
<ele>0</ele>
<time>2026-09-04T06:35:29Z</time>
</trkpt>
<trkpt lat="46.551480000" lon="-72.222930000">
<ele>0</ele>
<time>2026-09-04T06:35:30Z</time>
</trkpt>
<trkpt lat="46.552450000" lon="-72.222190000">
<ele>0</ele>
<time>2026-09-04T06:35:31Z</time>
</trkpt>
<trkpt lat="46.552840000" lon="-72.221860000">
<ele>0</ele>
<time>2026-09-04T06:35:32Z</time>
</trkpt>
<trkpt lat="46.553500000" lon="-72.221240000">
<ele>0</ele>
<time>2026-09-04T06:35:33Z</time>
</trkpt>
<trkpt lat="46.554260000" lon="-72.220430000">
<ele>0</ele>
<time>2026-09-04T06:35:34Z</time>
</trkpt>
<trkpt lat="46.555610000" lon="-72.218880000">
<ele>0</ele>
<time>2026-09-04T06:35:35Z</time>
</trkpt>
<trkpt lat="46.557680000" lon="-72.216420000">
<ele>0</ele>
<time>2026-09-04T06:35:36Z</time>
</trkpt>
<trkpt lat="46.558090000" lon="-72.215930000">
<ele>0</ele>
<time>2026-09-04T06:35:37Z</time>
</trkpt>
<trkpt lat="46.558430000" lon="-72.215590000">
<ele>0</ele>
<time>2026-09-04T06:35:38Z</time>
</trkpt>
<trkpt lat="46.558690000" lon="-72.215360000">
<ele>0</ele>
<time>2026-09-04T06:35:39Z</time>
</trkpt>
<trkpt lat="46.558790000" lon="-72.215280000">
<ele>0</ele>
<time>2026-09-04T06:35:40Z</time>
</trkpt>
<trkpt lat="46.558980000" lon="-72.215140000">
<ele>0</ele>
<time>2026-09-04T06:35:41Z</time>
</trkpt>
<trkpt lat="46.559390000" lon="-72.214900000">
<ele>0</ele>
<time>2026-09-04T06:35:42Z</time>
</trkpt>
<trkpt lat="46.561060000" lon="-72.213950000">
<ele>0</ele>
<time>2026-09-04T06:35:43Z</time>
</trkpt>
<trkpt lat="46.562640000" lon="-72.213070000">
<ele>0</ele>
<time>2026-09-04T06:35:44Z</time>
</trkpt>
<trkpt lat="46.563610000" lon="-72.212500000">
<ele>0</ele>
<time>2026-09-04T06:35:45Z</time>
</trkpt>
<trkpt lat="46.564780000" lon="-72.211840000">
<ele>0</ele>
<time>2026-09-04T06:35:46Z</time>
</trkpt>
<trkpt lat="46.565350000" lon="-72.211580000">
<ele>0</ele>
<time>2026-09-04T06:35:47Z</time>
</trkpt>
<trkpt lat="46.566520000" lon="-72.211320000">
<ele>0</ele>
<time>2026-09-04T06:35:48Z</time>
</trkpt>
<trkpt lat="46.566890000" lon="-72.211250000">
<ele>0</ele>
<time>2026-09-04T06:35:49Z</time>
</trkpt>
<trkpt lat="46.567130000" lon="-72.211270000">
<ele>0</ele>
<time>2026-09-04T06:35:50Z</time>
</trkpt>
<trkpt lat="46.567740000" lon="-72.211360000">
<ele>0</ele>
<time>2026-09-04T06:35:51Z</time>
</trkpt>
<trkpt lat="46.568260000" lon="-72.211280000">
<ele>0</ele>
<time>2026-09-04T06:35:52Z</time>
</trkpt>
<trkpt lat="46.568480000" lon="-72.211160000">
<ele>0</ele>
<time>2026-09-04T06:35:53Z</time>
</trkpt>
<trkpt lat="46.568660000" lon="-72.211020000">
<ele>0</ele>
<time>2026-09-04T06:35:54Z</time>
</trkpt>
<trkpt lat="46.568930000" lon="-72.210730000">
<ele>0</ele>
<time>2026-09-04T06:35:55Z</time>
</trkpt>
<trkpt lat="46.569090000" lon="-72.210470000">
<ele>0</ele>
<time>2026-09-04T06:35:56Z</time>
</trkpt>
<trkpt lat="46.569320000" lon="-72.210780000">
<ele>0</ele>
<time>2026-09-04T06:35:57Z</time>
</trkpt>
<trkpt lat="46.569320000" lon="-72.210780000">
<ele>0</ele>
<time>2026-09-04T06:35:58Z</time>
</trkpt>
<trkpt lat="46.570480000" lon="-72.212340000">
<ele>0</ele>
<time>2026-09-04T06:35:59Z</time>
</trkpt>
<trkpt lat="46.570750000" lon="-72.212800000">
<ele>0</ele>
<time>2026-09-04T06:36:00Z</time>
</trkpt>
<trkpt lat="46.571170000" lon="-72.213510000">
<ele>0</ele>
<time>2026-09-04T06:36:01Z</time>
</trkpt>
<trkpt lat="46.571690000" lon="-72.214380000">
<ele>0</ele>
<time>2026-09-04T06:36:02Z</time>
</trkpt>
<trkpt lat="46.572010000" lon="-72.214810000">
<ele>0</ele>
<time>2026-09-04T06:36:03Z</time>
</trkpt>
<trkpt lat="46.572240000" lon="-72.215080000">
<ele>0</ele>
<time>2026-09-04T06:36:04Z</time>
</trkpt>
<trkpt lat="46.572520000" lon="-72.215450000">
<ele>0</ele>
<time>2026-09-04T06:36:05Z</time>
</trkpt>
<trkpt lat="46.572830000" lon="-72.215940000">
<ele>0</ele>
<time>2026-09-04T06:36:06Z</time>
</trkpt>
<trkpt lat="46.573590000" lon="-72.217310000">
<ele>0</ele>
<time>2026-09-04T06:36:07Z</time>
</trkpt>
<trkpt lat="46.573880000" lon="-72.217780000">
<ele>0</ele>
<time>2026-09-04T06:36:08Z</time>
</trkpt>
<trkpt lat="46.574360000" lon="-72.218460000">
<ele>0</ele>
<time>2026-09-04T06:36:09Z</time>
</trkpt>
<trkpt lat="46.575830000" lon="-72.220500000">
<ele>0</ele>
<time>2026-09-04T06:36:10Z</time>
</trkpt>
<trkpt lat="46.576310000" lon="-72.221160000">
<ele>0</ele>
<time>2026-09-04T06:36:11Z</time>
</trkpt>
<trkpt lat="46.578700000" lon="-72.224390000">
<ele>0</ele>
<time>2026-09-04T06:36:12Z</time>
</trkpt>
<trkpt lat="46.581770000" lon="-72.228600000">
<ele>0</ele>
<time>2026-09-04T06:36:13Z</time>
</trkpt>
<trkpt lat="46.581980000" lon="-72.228870000">
<ele>0</ele>
<time>2026-09-04T06:36:14Z</time>
</trkpt>
<trkpt lat="46.582240000" lon="-72.229130000">
<ele>0</ele>
<time>2026-09-04T06:36:15Z</time>
</trkpt>
<trkpt lat="46.582660000" lon="-72.229480000">
<ele>0</ele>
<time>2026-09-04T06:36:16Z</time>
</trkpt>
<trkpt lat="46.583040000" lon="-72.229720000">
<ele>0</ele>
<time>2026-09-04T06:36:17Z</time>
</trkpt>
<trkpt lat="46.583510000" lon="-72.229910000">
<ele>0</ele>
<time>2026-09-04T06:36:18Z</time>
</trkpt>
<trkpt lat="46.583860000" lon="-72.230020000">
<ele>0</ele>
<time>2026-09-04T06:36:19Z</time>
</trkpt>
<trkpt lat="46.584360000" lon="-72.230070000">
<ele>0</ele>
<time>2026-09-04T06:36:20Z</time>
</trkpt>
<trkpt lat="46.584690000" lon="-72.230050000">
<ele>0</ele>
<time>2026-09-04T06:36:21Z</time>
</trkpt>
<trkpt lat="46.587610000" lon="-72.229860000">
<ele>0</ele>
<time>2026-09-04T06:36:22Z</time>
</trkpt>
<trkpt lat="46.587970000" lon="-72.229820000">
<ele>0</ele>
<time>2026-09-04T06:36:23Z</time>
</trkpt>
<trkpt lat="46.588270000" lon="-72.229760000">
<ele>0</ele>
<time>2026-09-04T06:36:24Z</time>
</trkpt>
<trkpt lat="46.588500000" lon="-72.229680000">
<ele>0</ele>
<time>2026-09-04T06:36:25Z</time>
</trkpt>
<trkpt lat="46.588800000" lon="-72.229510000">
<ele>0</ele>
<time>2026-09-04T06:36:26Z</time>
</trkpt>
<trkpt lat="46.589130000" lon="-72.229250000">
<ele>0</ele>
<time>2026-09-04T06:36:27Z</time>
</trkpt>
<trkpt lat="46.589260000" lon="-72.229110000">
<ele>0</ele>
<time>2026-09-04T06:36:28Z</time>
</trkpt>
<trkpt lat="46.589840000" lon="-72.228470000">
<ele>0</ele>
<time>2026-09-04T06:36:29Z</time>
</trkpt>
<trkpt lat="46.590220000" lon="-72.228030000">
<ele>0</ele>
<time>2026-09-04T06:36:30Z</time>
</trkpt>
<trkpt lat="46.590470000" lon="-72.227850000">
<ele>0</ele>
<time>2026-09-04T06:36:31Z</time>
</trkpt>
<trkpt lat="46.590570000" lon="-72.227790000">
<ele>0</ele>
<time>2026-09-04T06:36:32Z</time>
</trkpt>
<trkpt lat="46.590720000" lon="-72.227750000">
<ele>0</ele>
<time>2026-09-04T06:36:33Z</time>
</trkpt>
<trkpt lat="46.591080000" lon="-72.227750000">
<ele>0</ele>
<time>2026-09-04T06:36:34Z</time>
</trkpt>
<trkpt lat="46.591620000" lon="-72.227800000">
<ele>0</ele>
<time>2026-09-04T06:36:35Z</time>
</trkpt>
<trkpt lat="46.592890000" lon="-72.227980000">
<ele>0</ele>
<time>2026-09-04T06:36:36Z</time>
</trkpt>
<trkpt lat="46.593690000" lon="-72.228120000">
<ele>0</ele>
<time>2026-09-04T06:36:37Z</time>
</trkpt>
<trkpt lat="46.594120000" lon="-72.228240000">
<ele>0</ele>
<time>2026-09-04T06:36:38Z</time>
</trkpt>
<trkpt lat="46.594420000" lon="-72.228390000">
<ele>0</ele>
<time>2026-09-04T06:36:39Z</time>
</trkpt>
<trkpt lat="46.594540000" lon="-72.228470000">
<ele>0</ele>
<time>2026-09-04T06:36:40Z</time>
</trkpt>
<trkpt lat="46.594540000" lon="-72.228470000">
<ele>0</ele>
<time>2026-09-04T06:36:41Z</time>
</trkpt>
<trkpt lat="46.594990000" lon="-72.228790000">
<ele>0</ele>
<time>2026-09-04T06:36:42Z</time>
</trkpt>
<trkpt lat="46.595290000" lon="-72.229060000">
<ele>0</ele>
<time>2026-09-04T06:36:43Z</time>
</trkpt>
<trkpt lat="46.595800000" lon="-72.229700000">
<ele>0</ele>
<time>2026-09-04T06:36:44Z</time>
</trkpt>
<trkpt lat="46.596460000" lon="-72.230580000">
<ele>0</ele>
<time>2026-09-04T06:36:45Z</time>
</trkpt>
<trkpt lat="46.598420000" lon="-72.233220000">
<ele>0</ele>
<time>2026-09-04T06:36:46Z</time>
</trkpt>
<trkpt lat="46.601220000" lon="-72.236980000">
<ele>0</ele>
<time>2026-09-04T06:36:47Z</time>
</trkpt>
<trkpt lat="46.601590000" lon="-72.237500000">
<ele>0</ele>
<time>2026-09-04T06:36:48Z</time>
</trkpt>
<trkpt lat="46.601960000" lon="-72.238080000">
<ele>0</ele>
<time>2026-09-04T06:36:49Z</time>
</trkpt>
<trkpt lat="46.602340000" lon="-72.238810000">
<ele>0</ele>
<time>2026-09-04T06:36:50Z</time>
</trkpt>
<trkpt lat="46.602500000" lon="-72.239160000">
<ele>0</ele>
<time>2026-09-04T06:36:51Z</time>
</trkpt>
<trkpt lat="46.602970000" lon="-72.240240000">
<ele>0</ele>
<time>2026-09-04T06:36:52Z</time>
</trkpt>
<trkpt lat="46.604430000" lon="-72.243570000">
<ele>0</ele>
<time>2026-09-04T06:36:53Z</time>
</trkpt>
<trkpt lat="46.605370000" lon="-72.245720000">
<ele>0</ele>
<time>2026-09-04T06:36:54Z</time>
</trkpt>
<trkpt lat="46.605930000" lon="-72.246760000">
<ele>0</ele>
<time>2026-09-04T06:36:55Z</time>
</trkpt>
<trkpt lat="46.606200000" lon="-72.247140000">
<ele>0</ele>
<time>2026-09-04T06:36:56Z</time>
</trkpt>
<trkpt lat="46.606400000" lon="-72.247380000">
<ele>0</ele>
<time>2026-09-04T06:36:57Z</time>
</trkpt>
<trkpt lat="46.606850000" lon="-72.247870000">
<ele>0</ele>
<time>2026-09-04T06:36:58Z</time>
</trkpt>
<trkpt lat="46.607240000" lon="-72.248200000">
<ele>0</ele>
<time>2026-09-04T06:36:59Z</time>
</trkpt>
<trkpt lat="46.607570000" lon="-72.248440000">
<ele>0</ele>
<time>2026-09-04T06:37:00Z</time>
</trkpt>
<trkpt lat="46.608050000" lon="-72.248720000">
<ele>0</ele>
<time>2026-09-04T06:37:01Z</time>
</trkpt>
<trkpt lat="46.609310000" lon="-72.249300000">
<ele>0</ele>
<time>2026-09-04T06:37:02Z</time>
</trkpt>
<trkpt lat="46.609770000" lon="-72.249600000">
<ele>0</ele>
<time>2026-09-04T06:37:03Z</time>
</trkpt>
<trkpt lat="46.609990000" lon="-72.249760000">
<ele>0</ele>
<time>2026-09-04T06:37:04Z</time>
</trkpt>
<trkpt lat="46.610430000" lon="-72.250150000">
<ele>0</ele>
<time>2026-09-04T06:37:05Z</time>
</trkpt>
<trkpt lat="46.610810000" lon="-72.250590000">
<ele>0</ele>
<time>2026-09-04T06:37:06Z</time>
</trkpt>
<trkpt lat="46.611150000" lon="-72.251020000">
<ele>0</ele>
<time>2026-09-04T06:37:07Z</time>
</trkpt>
<trkpt lat="46.612480000" lon="-72.252940000">
<ele>0</ele>
<time>2026-09-04T06:37:08Z</time>
</trkpt>
<trkpt lat="46.614070000" lon="-72.255110000">
<ele>0</ele>
<time>2026-09-04T06:37:09Z</time>
</trkpt>
<trkpt lat="46.615500000" lon="-72.257110000">
<ele>0</ele>
<time>2026-09-04T06:37:10Z</time>
</trkpt>
<trkpt lat="46.616440000" lon="-72.258450000">
<ele>0</ele>
<time>2026-09-04T06:37:11Z</time>
</trkpt>
<trkpt lat="46.618280000" lon="-72.261000000">
<ele>0</ele>
<time>2026-09-04T06:37:12Z</time>
</trkpt>
<trkpt lat="46.618710000" lon="-72.261590000">
<ele>0</ele>
<time>2026-09-04T06:37:13Z</time>
</trkpt>
<trkpt lat="46.619020000" lon="-72.262060000">
<ele>0</ele>
<time>2026-09-04T06:37:14Z</time>
</trkpt>
<trkpt lat="46.619660000" lon="-72.263150000">
<ele>0</ele>
<time>2026-09-04T06:37:15Z</time>
</trkpt>
<trkpt lat="46.620070000" lon="-72.263920000">
<ele>0</ele>
<time>2026-09-04T06:37:16Z</time>
</trkpt>
<trkpt lat="46.620420000" lon="-72.264700000">
<ele>0</ele>
<time>2026-09-04T06:37:17Z</time>
</trkpt>
<trkpt lat="46.620760000" lon="-72.265540000">
<ele>0</ele>
<time>2026-09-04T06:37:18Z</time>
</trkpt>
<trkpt lat="46.620940000" lon="-72.266020000">
<ele>0</ele>
<time>2026-09-04T06:37:19Z</time>
</trkpt>
<trkpt lat="46.621340000" lon="-72.267200000">
<ele>0</ele>
<time>2026-09-04T06:37:20Z</time>
</trkpt>
<trkpt lat="46.621570000" lon="-72.268010000">
<ele>0</ele>
<time>2026-09-04T06:37:21Z</time>
</trkpt>
<trkpt lat="46.621760000" lon="-72.268850000">
<ele>0</ele>
<time>2026-09-04T06:37:22Z</time>
</trkpt>
<trkpt lat="46.621870000" lon="-72.269390000">
<ele>0</ele>
<time>2026-09-04T06:37:23Z</time>
</trkpt>
<trkpt lat="46.621980000" lon="-72.269890000">
<ele>0</ele>
<time>2026-09-04T06:37:24Z</time>
</trkpt>
<trkpt lat="46.622180000" lon="-72.270750000">
<ele>0</ele>
<time>2026-09-04T06:37:25Z</time>
</trkpt>
<trkpt lat="46.622300000" lon="-72.271120000">
<ele>0</ele>
<time>2026-09-04T06:37:26Z</time>
</trkpt>
<trkpt lat="46.622490000" lon="-72.271690000">
<ele>0</ele>
<time>2026-09-04T06:37:27Z</time>
</trkpt>
<trkpt lat="46.622790000" lon="-72.272290000">
<ele>0</ele>
<time>2026-09-04T06:37:28Z</time>
</trkpt>
<trkpt lat="46.622980000" lon="-72.272580000">
<ele>0</ele>
<time>2026-09-04T06:37:29Z</time>
</trkpt>
<trkpt lat="46.624500000" lon="-72.274780000">
<ele>0</ele>
<time>2026-09-04T06:37:30Z</time>
</trkpt>
<trkpt lat="46.624740000" lon="-72.275200000">
<ele>0</ele>
<time>2026-09-04T06:37:31Z</time>
</trkpt>
<trkpt lat="46.624830000" lon="-72.275420000">
<ele>0</ele>
<time>2026-09-04T06:37:32Z</time>
</trkpt>
<trkpt lat="46.625050000" lon="-72.276080000">
<ele>0</ele>
<time>2026-09-04T06:37:33Z</time>
</trkpt>
<trkpt lat="46.625140000" lon="-72.276510000">
<ele>0</ele>
<time>2026-09-04T06:37:34Z</time>
</trkpt>
<trkpt lat="46.625190000" lon="-72.276900000">
<ele>0</ele>
<time>2026-09-04T06:37:35Z</time>
</trkpt>
<trkpt lat="46.625190000" lon="-72.277720000">
<ele>0</ele>
<time>2026-09-04T06:37:36Z</time>
</trkpt>
<trkpt lat="46.625170000" lon="-72.278190000">
<ele>0</ele>
<time>2026-09-04T06:37:37Z</time>
</trkpt>
<trkpt lat="46.625070000" lon="-72.278570000">
<ele>0</ele>
<time>2026-09-04T06:37:38Z</time>
</trkpt>
<trkpt lat="46.624960000" lon="-72.278990000">
<ele>0</ele>
<time>2026-09-04T06:37:39Z</time>
</trkpt>
<trkpt lat="46.624960000" lon="-72.278990000">
<ele>0</ele>
<time>2026-09-04T06:37:40Z</time>
</trkpt>
<trkpt lat="46.624810000" lon="-72.279380000">
<ele>0</ele>
<time>2026-09-04T06:37:41Z</time>
</trkpt>
<trkpt lat="46.624540000" lon="-72.279930000">
<ele>0</ele>
<time>2026-09-04T06:37:42Z</time>
</trkpt>
<trkpt lat="46.624120000" lon="-72.280580000">
<ele>0</ele>
<time>2026-09-04T06:37:43Z</time>
</trkpt>
<trkpt lat="46.620870000" lon="-72.285480000">
<ele>0</ele>
<time>2026-09-04T06:37:44Z</time>
</trkpt>
<trkpt lat="46.619150000" lon="-72.288060000">
<ele>0</ele>
<time>2026-09-04T06:37:45Z</time>
</trkpt>
<trkpt lat="46.618750000" lon="-72.288680000">
<ele>0</ele>
<time>2026-09-04T06:37:46Z</time>
</trkpt>
<trkpt lat="46.618060000" lon="-72.289720000">
<ele>0</ele>
<time>2026-09-04T06:37:47Z</time>
</trkpt>
<trkpt lat="46.617310000" lon="-72.290740000">
<ele>0</ele>
<time>2026-09-04T06:37:48Z</time>
</trkpt>
<trkpt lat="46.616700000" lon="-72.291600000">
<ele>0</ele>
<time>2026-09-04T06:37:49Z</time>
</trkpt>
<trkpt lat="46.616270000" lon="-72.292190000">
<ele>0</ele>
<time>2026-09-04T06:37:50Z</time>
</trkpt>
<trkpt lat="46.615910000" lon="-72.292800000">
<ele>0</ele>
<time>2026-09-04T06:37:51Z</time>
</trkpt>
<trkpt lat="46.615250000" lon="-72.293930000">
<ele>0</ele>
<time>2026-09-04T06:37:52Z</time>
</trkpt>
<trkpt lat="46.615000000" lon="-72.294360000">
<ele>0</ele>
<time>2026-09-04T06:37:53Z</time>
</trkpt>
<trkpt lat="46.614590000" lon="-72.295040000">
<ele>0</ele>
<time>2026-09-04T06:37:54Z</time>
</trkpt>
<trkpt lat="46.614590000" lon="-72.295040000">
<ele>0</ele>
<time>2026-09-04T06:37:55Z</time>
</trkpt>
<trkpt lat="46.612440000" lon="-72.298370000">
<ele>0</ele>
<time>2026-09-04T06:37:56Z</time>
</trkpt>
<trkpt lat="46.611350000" lon="-72.300070000">
<ele>0</ele>
<time>2026-09-04T06:37:57Z</time>
</trkpt>
<trkpt lat="46.610080000" lon="-72.301960000">
<ele>0</ele>
<time>2026-09-04T06:37:58Z</time>
</trkpt>
<trkpt lat="46.607570000" lon="-72.305690000">
<ele>0</ele>
<time>2026-09-04T06:37:59Z</time>
</trkpt>
<trkpt lat="46.606140000" lon="-72.307810000">
<ele>0</ele>
<time>2026-09-04T06:38:00Z</time>
</trkpt>
<trkpt lat="46.604860000" lon="-72.309560000">
<ele>0</ele>
<time>2026-09-04T06:38:01Z</time>
</trkpt>
<trkpt lat="46.603570000" lon="-72.311340000">
<ele>0</ele>
<time>2026-09-04T06:38:02Z</time>
</trkpt>
<trkpt lat="46.597700000" lon="-72.319330000">
<ele>0</ele>
<time>2026-09-04T06:38:04Z</time>
</trkpt>
<trkpt lat="46.594730000" lon="-72.323250000">
<ele>0</ele>
<time>2026-09-04T06:38:05Z</time>
</trkpt>
<trkpt lat="46.591920000" lon="-72.327020000">
<ele>0</ele>
<time>2026-09-04T06:38:06Z</time>
</trkpt>
<trkpt lat="46.590510000" lon="-72.328860000">
<ele>0</ele>
<time>2026-09-04T06:38:07Z</time>
</trkpt>
<trkpt lat="46.590060000" lon="-72.329530000">
<ele>0</ele>
<time>2026-09-04T06:38:08Z</time>
</trkpt>
<trkpt lat="46.589760000" lon="-72.330050000">
<ele>0</ele>
<time>2026-09-04T06:38:09Z</time>
</trkpt>
<trkpt lat="46.588830000" lon="-72.332010000">
<ele>0</ele>
<time>2026-09-04T06:38:10Z</time>
</trkpt>
<trkpt lat="46.588250000" lon="-72.333230000">
<ele>0</ele>
<time>2026-09-04T06:38:11Z</time>
</trkpt>
<trkpt lat="46.587910000" lon="-72.333900000">
<ele>0</ele>
<time>2026-09-04T06:38:12Z</time>
</trkpt>
<trkpt lat="46.587730000" lon="-72.334160000">
<ele>0</ele>
<time>2026-09-04T06:38:13Z</time>
</trkpt>
<trkpt lat="46.587490000" lon="-72.334440000">
<ele>0</ele>
<time>2026-09-04T06:38:14Z</time>
</trkpt>
<trkpt lat="46.587260000" lon="-72.334630000">
<ele>0</ele>
<time>2026-09-04T06:38:15Z</time>
</trkpt>
<trkpt lat="46.586970000" lon="-72.334820000">
<ele>0</ele>
<time>2026-09-04T06:38:16Z</time>
</trkpt>
<trkpt lat="46.586420000" lon="-72.335060000">
<ele>0</ele>
<time>2026-09-04T06:38:17Z</time>
</trkpt>
<trkpt lat="46.586100000" lon="-72.335240000">
<ele>0</ele>
<time>2026-09-04T06:38:18Z</time>
</trkpt>
<trkpt lat="46.585770000" lon="-72.335510000">
<ele>0</ele>
<time>2026-09-04T06:38:19Z</time>
</trkpt>
<trkpt lat="46.585450000" lon="-72.335860000">
<ele>0</ele>
<time>2026-09-04T06:38:20Z</time>
</trkpt>
<trkpt lat="46.585120000" lon="-72.336240000">
<ele>0</ele>
<time>2026-09-04T06:38:21Z</time>
</trkpt>
<trkpt lat="46.584510000" lon="-72.336870000">
<ele>0</ele>
<time>2026-09-04T06:38:22Z</time>
</trkpt>
<trkpt lat="46.584510000" lon="-72.336870000">
<ele>0</ele>
<time>2026-09-04T06:38:23Z</time>
</trkpt>
<trkpt lat="46.583250000" lon="-72.338190000">
<ele>0</ele>
<time>2026-09-04T06:38:24Z</time>
</trkpt>
<trkpt lat="46.582510000" lon="-72.339010000">
<ele>0</ele>
<time>2026-09-04T06:38:25Z</time>
</trkpt>
<trkpt lat="46.582020000" lon="-72.339640000">
<ele>0</ele>
<time>2026-09-04T06:38:26Z</time>
</trkpt>
<trkpt lat="46.580600000" lon="-72.341520000">
<ele>0</ele>
<time>2026-09-04T06:38:27Z</time>
</trkpt>
<trkpt lat="46.580260000" lon="-72.341990000">
<ele>0</ele>
<time>2026-09-04T06:38:28Z</time>
</trkpt>
<trkpt lat="46.579680000" lon="-72.342770000">
<ele>0</ele>
<time>2026-09-04T06:38:29Z</time>
</trkpt>
<trkpt lat="46.579420000" lon="-72.343130000">
<ele>0</ele>
<time>2026-09-04T06:38:30Z</time>
</trkpt>
<trkpt lat="46.579210000" lon="-72.343360000">
<ele>0</ele>
<time>2026-09-04T06:38:31Z</time>
</trkpt>
<trkpt lat="46.579000000" lon="-72.343540000">
<ele>0</ele>
<time>2026-09-04T06:38:32Z</time>
</trkpt>
<trkpt lat="46.578750000" lon="-72.343700000">
<ele>0</ele>
<time>2026-09-04T06:38:33Z</time>
</trkpt>
<trkpt lat="46.578400000" lon="-72.343840000">
<ele>0</ele>
<time>2026-09-04T06:38:34Z</time>
</trkpt>
<trkpt lat="46.578290000" lon="-72.343870000">
<ele>0</ele>
<time>2026-09-04T06:38:35Z</time>
</trkpt>
<trkpt lat="46.577570000" lon="-72.343980000">
<ele>0</ele>
<time>2026-09-04T06:38:36Z</time>
</trkpt>
<trkpt lat="46.577040000" lon="-72.344050000">
<ele>0</ele>
<time>2026-09-04T06:38:37Z</time>
</trkpt>
<trkpt lat="46.576680000" lon="-72.344150000">
<ele>0</ele>
<time>2026-09-04T06:38:38Z</time>
</trkpt>
<trkpt lat="46.576500000" lon="-72.344200000">
<ele>0</ele>
<time>2026-09-04T06:38:39Z</time>
</trkpt>
<trkpt lat="46.576340000" lon="-72.344250000">
<ele>0</ele>
<time>2026-09-04T06:38:40Z</time>
</trkpt>
<trkpt lat="46.576130000" lon="-72.344350000">
<ele>0</ele>
<time>2026-09-04T06:38:41Z</time>
</trkpt>
<trkpt lat="46.575480000" lon="-72.344690000">
<ele>0</ele>
<time>2026-09-04T06:38:42Z</time>
</trkpt>
<trkpt lat="46.574970000" lon="-72.344990000">
<ele>0</ele>
<time>2026-09-04T06:38:43Z</time>
</trkpt>
<trkpt lat="46.574800000" lon="-72.345060000">
<ele>0</ele>
<time>2026-09-04T06:38:44Z</time>
</trkpt>
<trkpt lat="46.574450000" lon="-72.345150000">
<ele>0</ele>
<time>2026-09-04T06:38:45Z</time>
</trkpt>
<trkpt lat="46.574270000" lon="-72.345160000">
<ele>0</ele>
<time>2026-09-04T06:38:46Z</time>
</trkpt>
<trkpt lat="46.573910000" lon="-72.345120000">
<ele>0</ele>
<time>2026-09-04T06:38:47Z</time>
</trkpt>
<trkpt lat="46.573760000" lon="-72.345100000">
<ele>0</ele>
<time>2026-09-04T06:38:48Z</time>
</trkpt>
<trkpt lat="46.573530000" lon="-72.345000000">
<ele>0</ele>
<time>2026-09-04T06:38:49Z</time>
</trkpt>
<trkpt lat="46.572580000" lon="-72.344440000">
<ele>0</ele>
<time>2026-09-04T06:38:50Z</time>
</trkpt>
<trkpt lat="46.572420000" lon="-72.344340000">
<ele>0</ele>
<time>2026-09-04T06:38:51Z</time>
</trkpt>
<trkpt lat="46.572060000" lon="-72.344110000">
<ele>0</ele>
<time>2026-09-04T06:38:52Z</time>
</trkpt>
<trkpt lat="46.571260000" lon="-72.343610000">
<ele>0</ele>
<time>2026-09-04T06:38:53Z</time>
</trkpt>
<trkpt lat="46.570960000" lon="-72.343470000">
<ele>0</ele>
<time>2026-09-04T06:38:54Z</time>
</trkpt>
<trkpt lat="46.570570000" lon="-72.343350000">
<ele>0</ele>
<time>2026-09-04T06:38:55Z</time>
</trkpt>
<trkpt lat="46.569480000" lon="-72.343170000">
<ele>0</ele>
<time>2026-09-04T06:38:56Z</time>
</trkpt>
<trkpt lat="46.568880000" lon="-72.343030000">
<ele>0</ele>
<time>2026-09-04T06:38:57Z</time>
</trkpt>
<trkpt lat="46.568190000" lon="-72.342810000">
<ele>0</ele>
<time>2026-09-04T06:38:58Z</time>
</trkpt>
<trkpt lat="46.567700000" lon="-72.342630000">
<ele>0</ele>
<time>2026-09-04T06:38:59Z</time>
</trkpt>
<trkpt lat="46.567420000" lon="-72.342500000">
<ele>0</ele>
<time>2026-09-04T06:39:00Z</time>
</trkpt>
<trkpt lat="46.566980000" lon="-72.342230000">
<ele>0</ele>
<time>2026-09-04T06:39:01Z</time>
</trkpt>
<trkpt lat="46.566200000" lon="-72.341760000">
<ele>0</ele>
<time>2026-09-04T06:39:02Z</time>
</trkpt>
<trkpt lat="46.565750000" lon="-72.341520000">
<ele>0</ele>
<time>2026-09-04T06:39:03Z</time>
</trkpt>
<trkpt lat="46.564290000" lon="-72.341010000">
<ele>0</ele>
<time>2026-09-04T06:39:04Z</time>
</trkpt>
<trkpt lat="46.561490000" lon="-72.340050000">
<ele>0</ele>
<time>2026-09-04T06:39:05Z</time>
</trkpt>
<trkpt lat="46.560910000" lon="-72.339900000">
<ele>0</ele>
<time>2026-09-04T06:39:06Z</time>
</trkpt>
<trkpt lat="46.560130000" lon="-72.339790000">
<ele>0</ele>
<time>2026-09-04T06:39:07Z</time>
</trkpt>
<trkpt lat="46.559170000" lon="-72.339760000">
<ele>0</ele>
<time>2026-09-04T06:39:08Z</time>
</trkpt>
<trkpt lat="46.558760000" lon="-72.339780000">
<ele>0</ele>
<time>2026-09-04T06:39:09Z</time>
</trkpt>
<trkpt lat="46.556660000" lon="-72.340070000">
<ele>0</ele>
<time>2026-09-04T06:39:10Z</time>
</trkpt>
<trkpt lat="46.556120000" lon="-72.340140000">
<ele>0</ele>
<time>2026-09-04T06:39:11Z</time>
</trkpt>
<trkpt lat="46.554450000" lon="-72.340400000">
<ele>0</ele>
<time>2026-09-04T06:39:12Z</time>
</trkpt>
<trkpt lat="46.553950000" lon="-72.340540000">
<ele>0</ele>
<time>2026-09-04T06:39:13Z</time>
</trkpt>
<trkpt lat="46.553640000" lon="-72.340640000">
<ele>0</ele>
<time>2026-09-04T06:39:14Z</time>
</trkpt>
<trkpt lat="46.552940000" lon="-72.340950000">
<ele>0</ele>
<time>2026-09-04T06:39:15Z</time>
</trkpt>
<trkpt lat="46.552430000" lon="-72.341190000">
<ele>0</ele>
<time>2026-09-04T06:39:16Z</time>
</trkpt>
<trkpt lat="46.548480000" lon="-72.342990000">
<ele>0</ele>
<time>2026-09-04T06:39:17Z</time>
</trkpt>
<trkpt lat="46.545900000" lon="-72.344160000">
<ele>0</ele>
<time>2026-09-04T06:39:18Z</time>
</trkpt>
<trkpt lat="46.544780000" lon="-72.344580000">
<ele>0</ele>
<time>2026-09-04T06:39:19Z</time>
</trkpt>
<trkpt lat="46.543670000" lon="-72.344970000">
<ele>0</ele>
<time>2026-09-04T06:39:20Z</time>
</trkpt>
<trkpt lat="46.543210000" lon="-72.345090000">
<ele>0</ele>
<time>2026-09-04T06:39:21Z</time>
</trkpt>
<trkpt lat="46.542910000" lon="-72.345100000">
<ele>0</ele>
<time>2026-09-04T06:39:22Z</time>
</trkpt>
<trkpt lat="46.542420000" lon="-72.344980000">
<ele>0</ele>
<time>2026-09-04T06:39:23Z</time>
</trkpt>
<trkpt lat="46.542200000" lon="-72.344870000">
<ele>0</ele>
<time>2026-09-04T06:39:24Z</time>
</trkpt>
<trkpt lat="46.541950000" lon="-72.344650000">
<ele>0</ele>
<time>2026-09-04T06:39:25Z</time>
</trkpt>
<trkpt lat="46.541760000" lon="-72.344410000">
<ele>0</ele>
<time>2026-09-04T06:39:26Z</time>
</trkpt>
<trkpt lat="46.541630000" lon="-72.344200000">
<ele>0</ele>
<time>2026-09-04T06:39:27Z</time>
</trkpt>
<trkpt lat="46.541360000" lon="-72.343610000">
<ele>0</ele>
<time>2026-09-04T06:39:28Z</time>
</trkpt>
<trkpt lat="46.541230000" lon="-72.343350000">
<ele>0</ele>
<time>2026-09-04T06:39:29Z</time>
</trkpt>
<trkpt lat="46.541110000" lon="-72.343130000">
<ele>0</ele>
<time>2026-09-04T06:39:30Z</time>
</trkpt>
<trkpt lat="46.540910000" lon="-72.342860000">
<ele>0</ele>
<time>2026-09-04T06:39:31Z</time>
</trkpt>
<trkpt lat="46.540720000" lon="-72.342620000">
<ele>0</ele>
<time>2026-09-04T06:39:32Z</time>
</trkpt>
<trkpt lat="46.540430000" lon="-72.342340000">
<ele>0</ele>
<time>2026-09-04T06:39:33Z</time>
</trkpt>
<trkpt lat="46.540140000" lon="-72.342150000">
<ele>0</ele>
<time>2026-09-04T06:39:34Z</time>
</trkpt>
<trkpt lat="46.539930000" lon="-72.342030000">
<ele>0</ele>
<time>2026-09-04T06:39:35Z</time>
</trkpt>
<trkpt lat="46.539670000" lon="-72.341930000">
<ele>0</ele>
<time>2026-09-04T06:39:36Z</time>
</trkpt>
<trkpt lat="46.539420000" lon="-72.341870000">
<ele>0</ele>
<time>2026-09-04T06:39:37Z</time>
</trkpt>
<trkpt lat="46.537820000" lon="-72.341590000">
<ele>0</ele>
<time>2026-09-04T06:39:38Z</time>
</trkpt>
<trkpt lat="46.536210000" lon="-72.341300000">
<ele>0</ele>
<time>2026-09-04T06:39:39Z</time>
</trkpt>
<trkpt lat="46.535640000" lon="-72.341180000">
<ele>0</ele>
<time>2026-09-04T06:39:40Z</time>
</trkpt>
<trkpt lat="46.533790000" lon="-72.340620000">
<ele>0</ele>
<time>2026-09-04T06:39:41Z</time>
</trkpt>
<trkpt lat="46.532570000" lon="-72.340220000">
<ele>0</ele>
<time>2026-09-04T06:39:42Z</time>
</trkpt>
<trkpt lat="46.532220000" lon="-72.340110000">
<ele>0</ele>
<time>2026-09-04T06:39:43Z</time>
</trkpt>
<trkpt lat="46.530800000" lon="-72.339670000">
<ele>0</ele>
<time>2026-09-04T06:39:44Z</time>
</trkpt>
<trkpt lat="46.530380000" lon="-72.339540000">
<ele>0</ele>
<time>2026-09-04T06:39:45Z</time>
</trkpt>
<trkpt lat="46.529890000" lon="-72.339380000">
<ele>0</ele>
<time>2026-09-04T06:39:46Z</time>
</trkpt>
<trkpt lat="46.529600000" lon="-72.339300000">
<ele>0</ele>
<time>2026-09-04T06:39:47Z</time>
</trkpt>
<trkpt lat="46.529600000" lon="-72.339140000">
<ele>0</ele>
<time>2026-09-04T06:39:48Z</time>
</trkpt>
<trkpt lat="46.529570000" lon="-72.339050000">
<ele>0</ele>
<time>2026-09-04T06:39:49Z</time>
</trkpt>
<trkpt lat="46.529570000" lon="-72.339050000">
<ele>0</ele>
<time>2026-09-04T06:39:50Z</time>
</trkpt>
<trkpt lat="46.529550000" lon="-72.339000000">
<ele>0</ele>
<time>2026-09-04T06:39:51Z</time>
</trkpt>
<trkpt lat="46.529490000" lon="-72.338890000">
<ele>0</ele>
<time>2026-09-04T06:39:52Z</time>
</trkpt>
<trkpt lat="46.529450000" lon="-72.338740000">
<ele>0</ele>
<time>2026-09-04T06:39:53Z</time>
</trkpt>
<trkpt lat="46.529400000" lon="-72.338490000">
<ele>0</ele>
<time>2026-09-04T06:39:54Z</time>
</trkpt>
<trkpt lat="46.529350000" lon="-72.338230000">
<ele>0</ele>
<time>2026-09-04T06:39:55Z</time>
</trkpt>
<trkpt lat="46.529250000" lon="-72.338250000">
<ele>0</ele>
<time>2026-09-04T06:39:56Z</time>
</trkpt>
<trkpt lat="46.529180000" lon="-72.338290000">
<ele>0</ele>
<time>2026-09-04T06:39:57Z</time>
</trkpt>
<trkpt lat="46.529140000" lon="-72.338380000">
<ele>0</ele>
<time>2026-09-04T06:39:58Z</time>
</trkpt>
<trkpt lat="46.529090000" lon="-72.338630000">
<ele>0</ele>
<time>2026-09-04T06:39:59Z</time>
</trkpt>
<trkpt lat="46.529060000" lon="-72.338830000">
<ele>0</ele>
<time>2026-09-04T06:40:00Z</time>
</trkpt>
<trkpt lat="46.529030000" lon="-72.338900000">
<ele>0</ele>
<time>2026-09-04T06:40:01Z</time>
</trkpt>
<trkpt lat="46.528970000" lon="-72.338920000">
<ele>0</ele>
<time>2026-09-04T06:40:02Z</time>
</trkpt>
<trkpt lat="46.528890000" lon="-72.338910000">
<ele>0</ele>
<time>2026-09-04T06:40:03Z</time>
</trkpt>
<trkpt lat="46.528700000" lon="-72.338850000">
<ele>0</ele>
<time>2026-09-04T06:40:04Z</time>
</trkpt>
<trkpt lat="46.528340000" lon="-72.338750000">
<ele>0</ele>
<time>2026-09-04T06:40:05Z</time>
</trkpt>
<trkpt lat="46.528340000" lon="-72.338750000">
<ele>0</ele>
<time>2026-09-04T06:40:06Z</time>
</trkpt>
<trkpt lat="46.528970000" lon="-72.338920000">
<ele>0</ele>
<time>2026-09-04T06:40:07Z</time>
</trkpt>
<trkpt lat="46.529030000" lon="-72.338900000">
<ele>0</ele>
<time>2026-09-04T06:40:08Z</time>
</trkpt>
<trkpt lat="46.529060000" lon="-72.338830000">
<ele>0</ele>
<time>2026-09-04T06:40:09Z</time>
</trkpt>
<trkpt lat="46.529110000" lon="-72.338480000">
<ele>0</ele>
<time>2026-09-04T06:40:10Z</time>
</trkpt>
<trkpt lat="46.529140000" lon="-72.338360000">
<ele>0</ele>
<time>2026-09-04T06:40:11Z</time>
</trkpt>
<trkpt lat="46.529200000" lon="-72.338270000">
<ele>0</ele>
<time>2026-09-04T06:40:12Z</time>
</trkpt>
<trkpt lat="46.529350000" lon="-72.338230000">
<ele>0</ele>
<time>2026-09-04T06:40:13Z</time>
</trkpt>
<trkpt lat="46.529450000" lon="-72.338730000">
<ele>0</ele>
<time>2026-09-04T06:40:14Z</time>
</trkpt>
<trkpt lat="46.529450000" lon="-72.338750000">
<ele>0</ele>
<time>2026-09-04T06:40:15Z</time>
</trkpt>
<trkpt lat="46.529450000" lon="-72.338750000">
<ele>0</ele>
<time>2026-09-04T06:40:16Z</time>
</trkpt>
<trkpt lat="46.529550000" lon="-72.339000000">
<ele>0</ele>
<time>2026-09-04T06:40:17Z</time>
</trkpt>
<trkpt lat="46.529590000" lon="-72.339080000">
<ele>0</ele>
<time>2026-09-04T06:40:18Z</time>
</trkpt>
<trkpt lat="46.529600000" lon="-72.339190000">
<ele>0</ele>
<time>2026-09-04T06:40:19Z</time>
</trkpt>
<trkpt lat="46.529600000" lon="-72.339300000">
<ele>0</ele>
<time>2026-09-04T06:40:20Z</time>
</trkpt>
<trkpt lat="46.529370000" lon="-72.339320000">
<ele>0</ele>
<time>2026-09-04T06:40:21Z</time>
</trkpt>
<trkpt lat="46.529350000" lon="-72.339320000">
<ele>0</ele>
<time>2026-09-04T06:40:22Z</time>
</trkpt>
<trkpt lat="46.529350000" lon="-72.339320000">
<ele>0</ele>
<time>2026-09-04T06:40:23Z</time>
</trkpt>
<trkpt lat="46.527610000" lon="-72.339390000">
<ele>0</ele>
<time>2026-09-04T06:40:24Z</time>
</trkpt>
<trkpt lat="46.526710000" lon="-72.339470000">
<ele>0</ele>
<time>2026-09-04T06:40:25Z</time>
</trkpt>
<trkpt lat="46.526690000" lon="-72.338950000">
<ele>0</ele>
<time>2026-09-04T06:40:26Z</time>
</trkpt>
<trkpt lat="46.526670000" lon="-72.338160000">
<ele>0</ele>
<time>2026-09-04T06:40:27Z</time>
</trkpt>
<trkpt lat="46.526690000" lon="-72.337470000">
<ele>0</ele>
<time>2026-09-04T06:40:28Z</time>
</trkpt>
<trkpt lat="46.526690000" lon="-72.337470000">
<ele>0</ele>
<time>2026-09-04T06:40:29Z</time>
</trkpt>
<trkpt lat="46.526770000" lon="-72.336090000">
<ele>0</ele>
<time>2026-09-04T06:40:30Z</time>
</trkpt>
<trkpt lat="46.526830000" lon="-72.333920000">
<ele>0</ele>
<time>2026-09-04T06:40:31Z</time>
</trkpt>
<trkpt lat="46.526830000" lon="-72.333480000">
<ele>0</ele>
<time>2026-09-04T06:40:32Z</time>
</trkpt>
<trkpt lat="46.526830000" lon="-72.332800000">
<ele>0</ele>
<time>2026-09-04T06:40:33Z</time>
</trkpt>
<trkpt lat="46.526790000" lon="-72.332060000">
<ele>0</ele>
<time>2026-09-04T06:40:34Z</time>
</trkpt>
<trkpt lat="46.526750000" lon="-72.331270000">
<ele>0</ele>
<time>2026-09-04T06:40:35Z</time>
</trkpt>
<trkpt lat="46.526690000" lon="-72.329450000">
<ele>0</ele>
<time>2026-09-04T06:40:36Z</time>
</trkpt>
<trkpt lat="46.526680000" lon="-72.329190000">
<ele>0</ele>
<time>2026-09-04T06:40:37Z</time>
</trkpt>
<trkpt lat="46.526600000" lon="-72.328740000">
<ele>0</ele>
<time>2026-09-04T06:40:38Z</time>
</trkpt>
<trkpt lat="46.526480000" lon="-72.328360000">
<ele>0</ele>
<time>2026-09-04T06:40:39Z</time>
</trkpt>
<trkpt lat="46.526270000" lon="-72.327930000">
<ele>0</ele>
<time>2026-09-04T06:40:40Z</time>
</trkpt>
<trkpt lat="46.525800000" lon="-72.326940000">
<ele>0</ele>
<time>2026-09-04T06:40:41Z</time>
</trkpt>
<trkpt lat="46.525270000" lon="-72.325860000">
<ele>0</ele>
<time>2026-09-04T06:40:42Z</time>
</trkpt>
<trkpt lat="46.524840000" lon="-72.325030000">
<ele>0</ele>
<time>2026-09-04T06:40:43Z</time>
</trkpt>
<trkpt lat="46.524490000" lon="-72.324450000">
<ele>0</ele>
<time>2026-09-04T06:40:44Z</time>
</trkpt>
<trkpt lat="46.524230000" lon="-72.324010000">
<ele>0</ele>
<time>2026-09-04T06:40:45Z</time>
</trkpt>
<trkpt lat="46.524070000" lon="-72.323650000">
<ele>0</ele>
<time>2026-09-04T06:40:46Z</time>
</trkpt>
<trkpt lat="46.523980000" lon="-72.323370000">
<ele>0</ele>
<time>2026-09-04T06:40:47Z</time>
</trkpt>
<trkpt lat="46.523930000" lon="-72.323110000">
<ele>0</ele>
<time>2026-09-04T06:40:48Z</time>
</trkpt>
<trkpt lat="46.523850000" lon="-72.322610000">
<ele>0</ele>
<time>2026-09-04T06:40:49Z</time>
</trkpt>
<trkpt lat="46.523630000" lon="-72.321350000">
<ele>0</ele>
<time>2026-09-04T06:40:50Z</time>
</trkpt>
<trkpt lat="46.523580000" lon="-72.321100000">
<ele>0</ele>
<time>2026-09-04T06:40:51Z</time>
</trkpt>
<trkpt lat="46.523510000" lon="-72.320760000">
<ele>0</ele>
<time>2026-09-04T06:40:52Z</time>
</trkpt>
<trkpt lat="46.523320000" lon="-72.320120000">
<ele>0</ele>
<time>2026-09-04T06:40:53Z</time>
</trkpt>
<trkpt lat="46.523250000" lon="-72.319880000">
<ele>0</ele>
<time>2026-09-04T06:40:54Z</time>
</trkpt>
<trkpt lat="46.522810000" lon="-72.318580000">
<ele>0</ele>
<time>2026-09-04T06:40:55Z</time>
</trkpt>
<trkpt lat="46.522550000" lon="-72.317620000">
<ele>0</ele>
<time>2026-09-04T06:40:56Z</time>
</trkpt>
<trkpt lat="46.521530000" lon="-72.314490000">
<ele>0</ele>
<time>2026-09-04T06:40:57Z</time>
</trkpt>
<trkpt lat="46.521480000" lon="-72.314350000">
<ele>0</ele>
<time>2026-09-04T06:40:58Z</time>
</trkpt>
<trkpt lat="46.521330000" lon="-72.313950000">
<ele>0</ele>
<time>2026-09-04T06:40:59Z</time>
</trkpt>
<trkpt lat="46.521220000" lon="-72.313450000">
<ele>0</ele>
<time>2026-09-04T06:41:00Z</time>
</trkpt>
<trkpt lat="46.521140000" lon="-72.312340000">
<ele>0</ele>
<time>2026-09-04T06:41:01Z</time>
</trkpt>
<trkpt lat="46.521070000" lon="-72.311270000">
<ele>0</ele>
<time>2026-09-04T06:41:02Z</time>
</trkpt>
<trkpt lat="46.521010000" lon="-72.310790000">
<ele>0</ele>
<time>2026-09-04T06:41:03Z</time>
</trkpt>
<trkpt lat="46.520930000" lon="-72.310100000">
<ele>0</ele>
<time>2026-09-04T06:41:04Z</time>
</trkpt>
<trkpt lat="46.520800000" lon="-72.308870000">
<ele>0</ele>
<time>2026-09-04T06:41:05Z</time>
</trkpt>
<trkpt lat="46.520730000" lon="-72.307770000">
<ele>0</ele>
<time>2026-09-04T06:41:06Z</time>
</trkpt>
<trkpt lat="46.520530000" lon="-72.305350000">
<ele>0</ele>
<time>2026-09-04T06:41:07Z</time>
</trkpt>
<trkpt lat="46.520490000" lon="-72.305090000">
<ele>0</ele>
<time>2026-09-04T06:41:08Z</time>
</trkpt>
<trkpt lat="46.520290000" lon="-72.304230000">
<ele>0</ele>
<time>2026-09-04T06:41:09Z</time>
</trkpt>
<trkpt lat="46.520160000" lon="-72.303700000">
<ele>0</ele>
<time>2026-09-04T06:41:10Z</time>
</trkpt>
<trkpt lat="46.519820000" lon="-72.302210000">
<ele>0</ele>
<time>2026-09-04T06:41:11Z</time>
</trkpt>
<trkpt lat="46.519510000" lon="-72.300610000">
<ele>0</ele>
<time>2026-09-04T06:41:12Z</time>
</trkpt>
<trkpt lat="46.519460000" lon="-72.300360000">
<ele>0</ele>
<time>2026-09-04T06:41:13Z</time>
</trkpt>
<trkpt lat="46.519260000" lon="-72.299350000">
<ele>0</ele>
<time>2026-09-04T06:41:14Z</time>
</trkpt>
<trkpt lat="46.518700000" lon="-72.296420000">
<ele>0</ele>
<time>2026-09-04T06:41:15Z</time>
</trkpt>
<trkpt lat="46.518560000" lon="-72.295580000">
<ele>0</ele>
<time>2026-09-04T06:41:16Z</time>
</trkpt>
<trkpt lat="46.518470000" lon="-72.294620000">
<ele>0</ele>
<time>2026-09-04T06:41:17Z</time>
</trkpt>
<trkpt lat="46.518340000" lon="-72.293370000">
<ele>0</ele>
<time>2026-09-04T06:41:18Z</time>
</trkpt>
<trkpt lat="46.518240000" lon="-72.292360000">
<ele>0</ele>
<time>2026-09-04T06:41:19Z</time>
</trkpt>
<trkpt lat="46.518190000" lon="-72.290760000">
<ele>0</ele>
<time>2026-09-04T06:41:20Z</time>
</trkpt>
<trkpt lat="46.518190000" lon="-72.290240000">
<ele>0</ele>
<time>2026-09-04T06:41:21Z</time>
</trkpt>
<trkpt lat="46.518200000" lon="-72.289720000">
<ele>0</ele>
<time>2026-09-04T06:41:22Z</time>
</trkpt>
<trkpt lat="46.518220000" lon="-72.288270000">
<ele>0</ele>
<time>2026-09-04T06:41:23Z</time>
</trkpt>
<trkpt lat="46.518230000" lon="-72.287000000">
<ele>0</ele>
<time>2026-09-04T06:41:24Z</time>
</trkpt>
<trkpt lat="46.518210000" lon="-72.285980000">
<ele>0</ele>
<time>2026-09-04T06:41:25Z</time>
</trkpt>
<trkpt lat="46.518170000" lon="-72.285530000">
<ele>0</ele>
<time>2026-09-04T06:41:26Z</time>
</trkpt>
<trkpt lat="46.518010000" lon="-72.284570000">
<ele>0</ele>
<time>2026-09-04T06:41:27Z</time>
</trkpt>
<trkpt lat="46.517760000" lon="-72.283230000">
<ele>0</ele>
<time>2026-09-04T06:41:28Z</time>
</trkpt>
<trkpt lat="46.517640000" lon="-72.282290000">
<ele>0</ele>
<time>2026-09-04T06:41:29Z</time>
</trkpt>
<trkpt lat="46.517390000" lon="-72.280350000">
<ele>0</ele>
<time>2026-09-04T06:41:30Z</time>
</trkpt>
<trkpt lat="46.517320000" lon="-72.279420000">
<ele>0</ele>
<time>2026-09-04T06:41:31Z</time>
</trkpt>
<trkpt lat="46.517330000" lon="-72.278450000">
<ele>0</ele>
<time>2026-09-04T06:41:32Z</time>
</trkpt>
<trkpt lat="46.517420000" lon="-72.277540000">
<ele>0</ele>
<time>2026-09-04T06:41:33Z</time>
</trkpt>
<trkpt lat="46.517460000" lon="-72.277250000">
<ele>0</ele>
<time>2026-09-04T06:41:34Z</time>
</trkpt>
<trkpt lat="46.517620000" lon="-72.276260000">
<ele>0</ele>
<time>2026-09-04T06:41:35Z</time>
</trkpt>
<trkpt lat="46.517770000" lon="-72.275310000">
<ele>0</ele>
<time>2026-09-04T06:41:36Z</time>
</trkpt>
<trkpt lat="46.517970000" lon="-72.273680000">
<ele>0</ele>
<time>2026-09-04T06:41:37Z</time>
</trkpt>
<trkpt lat="46.518080000" lon="-72.271610000">
<ele>0</ele>
<time>2026-09-04T06:41:38Z</time>
</trkpt>
<trkpt lat="46.518080000" lon="-72.270640000">
<ele>0</ele>
<time>2026-09-04T06:41:39Z</time>
</trkpt>
<trkpt lat="46.518010000" lon="-72.269970000">
<ele>0</ele>
<time>2026-09-04T06:41:40Z</time>
</trkpt>
<trkpt lat="46.517930000" lon="-72.269540000">
<ele>0</ele>
<time>2026-09-04T06:41:41Z</time>
</trkpt>
<trkpt lat="46.517870000" lon="-72.269210000">
<ele>0</ele>
<time>2026-09-04T06:41:42Z</time>
</trkpt>
<trkpt lat="46.517620000" lon="-72.268320000">
<ele>0</ele>
<time>2026-09-04T06:41:43Z</time>
</trkpt>
<trkpt lat="46.517450000" lon="-72.267850000">
<ele>0</ele>
<time>2026-09-04T06:41:44Z</time>
</trkpt>
<trkpt lat="46.517290000" lon="-72.267480000">
<ele>0</ele>
<time>2026-09-04T06:41:45Z</time>
</trkpt>
<trkpt lat="46.517130000" lon="-72.267190000">
<ele>0</ele>
<time>2026-09-04T06:41:46Z</time>
</trkpt>
<trkpt lat="46.516780000" lon="-72.266620000">
<ele>0</ele>
<time>2026-09-04T06:41:47Z</time>
</trkpt>
<trkpt lat="46.516520000" lon="-72.266260000">
<ele>0</ele>
<time>2026-09-04T06:41:48Z</time>
</trkpt>
<trkpt lat="46.516130000" lon="-72.265710000">
<ele>0</ele>
<time>2026-09-04T06:41:49Z</time>
</trkpt>
<trkpt lat="46.515470000" lon="-72.264840000">
<ele>0</ele>
<time>2026-09-04T06:41:50Z</time>
</trkpt>
<trkpt lat="46.514300000" lon="-72.263210000">
<ele>0</ele>
<time>2026-09-04T06:41:51Z</time>
</trkpt>
<trkpt lat="46.513390000" lon="-72.261960000">
<ele>0</ele>
<time>2026-09-04T06:41:52Z</time>
</trkpt>
<trkpt lat="46.511830000" lon="-72.259650000">
<ele>0</ele>
<time>2026-09-04T06:41:53Z</time>
</trkpt>
<trkpt lat="46.511280000" lon="-72.258860000">
<ele>0</ele>
<time>2026-09-04T06:41:54Z</time>
</trkpt>
<trkpt lat="46.511190000" lon="-72.258690000">
<ele>0</ele>
<time>2026-09-04T06:41:55Z</time>
</trkpt>
<trkpt lat="46.509450000" lon="-72.256190000">
<ele>0</ele>
<time>2026-09-04T06:41:56Z</time>
</trkpt>
<trkpt lat="46.508210000" lon="-72.254400000">
<ele>0</ele>
<time>2026-09-04T06:41:57Z</time>
</trkpt>
<trkpt lat="46.507190000" lon="-72.252910000">
<ele>0</ele>
<time>2026-09-04T06:41:58Z</time>
</trkpt>
<trkpt lat="46.505000000" lon="-72.249730000">
<ele>0</ele>
<time>2026-09-04T06:41:59Z</time>
</trkpt>
<trkpt lat="46.504140000" lon="-72.248490000">
<ele>0</ele>
<time>2026-09-04T06:42:00Z</time>
</trkpt>
<trkpt lat="46.503640000" lon="-72.247690000">
<ele>0</ele>
<time>2026-09-04T06:42:01Z</time>
</trkpt>
<trkpt lat="46.503590000" lon="-72.247580000">
<ele>0</ele>
<time>2026-09-04T06:42:02Z</time>
</trkpt>
<trkpt lat="46.503540000" lon="-72.247380000">
<ele>0</ele>
<time>2026-09-04T06:42:03Z</time>
</trkpt>
<trkpt lat="46.503550000" lon="-72.247160000">
<ele>0</ele>
<time>2026-09-04T06:42:04Z</time>
</trkpt>
<trkpt lat="46.503200000" lon="-72.247140000">
<ele>0</ele>
<time>2026-09-04T06:42:05Z</time>
</trkpt>
<trkpt lat="46.503200000" lon="-72.247140000">
<ele>0</ele>
<time>2026-09-04T06:42:06Z</time>
</trkpt>
<trkpt lat="46.501580000" lon="-72.247120000">
<ele>0</ele>
<time>2026-09-04T06:42:07Z</time>
</trkpt>
<trkpt lat="46.500780000" lon="-72.247140000">
<ele>0</ele>
<time>2026-09-04T06:42:08Z</time>
</trkpt>
<trkpt lat="46.500500000" lon="-72.247170000">
<ele>0</ele>
<time>2026-09-04T06:42:09Z</time>
</trkpt>
<trkpt lat="46.500260000" lon="-72.247250000">
<ele>0</ele>
<time>2026-09-04T06:42:10Z</time>
</trkpt>
<trkpt lat="46.500020000" lon="-72.247400000">
<ele>0</ele>
<time>2026-09-04T06:42:11Z</time>
</trkpt>
<trkpt lat="46.499380000" lon="-72.247990000">
<ele>0</ele>
<time>2026-09-04T06:42:12Z</time>
</trkpt>
<trkpt lat="46.498300000" lon="-72.249020000">
<ele>0</ele>
<time>2026-09-04T06:42:13Z</time>
</trkpt>
<trkpt lat="46.498070000" lon="-72.249220000">
<ele>0</ele>
<time>2026-09-04T06:42:14Z</time>
</trkpt>
<trkpt lat="46.497760000" lon="-72.249450000">
<ele>0</ele>
<time>2026-09-04T06:42:15Z</time>
</trkpt>
<trkpt lat="46.497240000" lon="-72.249750000">
<ele>0</ele>
<time>2026-09-04T06:42:16Z</time>
</trkpt>
<trkpt lat="46.496280000" lon="-72.250250000">
<ele>0</ele>
<time>2026-09-04T06:42:17Z</time>
</trkpt>
<trkpt lat="46.496030000" lon="-72.250340000">
<ele>0</ele>
<time>2026-09-04T06:42:18Z</time>
</trkpt>
<trkpt lat="46.495610000" lon="-72.250460000">
<ele>0</ele>
<time>2026-09-04T06:42:19Z</time>
</trkpt>
<trkpt lat="46.495420000" lon="-72.250560000">
<ele>0</ele>
<time>2026-09-04T06:42:20Z</time>
</trkpt>
<trkpt lat="46.495100000" lon="-72.250780000">
<ele>0</ele>
<time>2026-09-04T06:42:21Z</time>
</trkpt>
<trkpt lat="46.494460000" lon="-72.251340000">
<ele>0</ele>
<time>2026-09-04T06:42:22Z</time>
</trkpt>
<trkpt lat="46.493820000" lon="-72.251980000">
<ele>0</ele>
<time>2026-09-04T06:42:23Z</time>
</trkpt>
<trkpt lat="46.493460000" lon="-72.252320000">
<ele>0</ele>
<time>2026-09-04T06:42:24Z</time>
</trkpt>
<trkpt lat="46.492690000" lon="-72.253020000">
<ele>0</ele>
<time>2026-09-04T06:42:25Z</time>
</trkpt>
<trkpt lat="46.491240000" lon="-72.254410000">
<ele>0</ele>
<time>2026-09-04T06:42:26Z</time>
</trkpt>
<trkpt lat="46.490590000" lon="-72.254950000">
<ele>0</ele>
<time>2026-09-04T06:42:27Z</time>
</trkpt>
<trkpt lat="46.489370000" lon="-72.255780000">
<ele>0</ele>
<time>2026-09-04T06:42:28Z</time>
</trkpt>
<trkpt lat="46.485820000" lon="-72.257730000">
<ele>0</ele>
<time>2026-09-04T06:42:29Z</time>
</trkpt>
<trkpt lat="46.485280000" lon="-72.258060000">
<ele>0</ele>
<time>2026-09-04T06:42:30Z</time>
</trkpt>
<trkpt lat="46.484330000" lon="-72.258690000">
<ele>0</ele>
<time>2026-09-04T06:42:31Z</time>
</trkpt>
<trkpt lat="46.483190000" lon="-72.259490000">
<ele>0</ele>
<time>2026-09-04T06:42:32Z</time>
</trkpt>
<trkpt lat="46.481960000" lon="-72.260470000">
<ele>0</ele>
<time>2026-09-04T06:42:33Z</time>
</trkpt>
<trkpt lat="46.481930000" lon="-72.260490000">
<ele>0</ele>
<time>2026-09-04T06:42:34Z</time>
</trkpt>
<trkpt lat="46.479420000" lon="-72.262450000">
<ele>0</ele>
<time>2026-09-04T06:42:35Z</time>
</trkpt>
<trkpt lat="46.478310000" lon="-72.263180000">
<ele>0</ele>
<time>2026-09-04T06:42:36Z</time>
</trkpt>
<trkpt lat="46.477790000" lon="-72.263490000">
<ele>0</ele>
<time>2026-09-04T06:42:37Z</time>
</trkpt>
<trkpt lat="46.476900000" lon="-72.263960000">
<ele>0</ele>
<time>2026-09-04T06:42:38Z</time>
</trkpt>
<trkpt lat="46.475170000" lon="-72.264760000">
<ele>0</ele>
<time>2026-09-04T06:42:39Z</time>
</trkpt>
<trkpt lat="46.473590000" lon="-72.265540000">
<ele>0</ele>
<time>2026-09-04T06:42:40Z</time>
</trkpt>
<trkpt lat="46.472450000" lon="-72.266150000">
<ele>0</ele>
<time>2026-09-04T06:42:41Z</time>
</trkpt>
<trkpt lat="46.469900000" lon="-72.267610000">
<ele>0</ele>
<time>2026-09-04T06:42:42Z</time>
</trkpt>
<trkpt lat="46.468520000" lon="-72.268350000">
<ele>0</ele>
<time>2026-09-04T06:42:43Z</time>
</trkpt>
<trkpt lat="46.465050000" lon="-72.270080000">
<ele>0</ele>
<time>2026-09-04T06:42:44Z</time>
</trkpt>
<trkpt lat="46.459970000" lon="-72.272540000">
<ele>0</ele>
<time>2026-09-04T06:42:45Z</time>
</trkpt>
<trkpt lat="46.456450000" lon="-72.274240000">
<ele>0</ele>
<time>2026-09-04T06:42:46Z</time>
</trkpt>
<trkpt lat="46.455820000" lon="-72.274560000">
<ele>0</ele>
<time>2026-09-04T06:42:47Z</time>
</trkpt>
<trkpt lat="46.455220000" lon="-72.274950000">
<ele>0</ele>
<time>2026-09-04T06:42:48Z</time>
</trkpt>
<trkpt lat="46.454990000" lon="-72.275120000">
<ele>0</ele>
<time>2026-09-04T06:42:49Z</time>
</trkpt>
<trkpt lat="46.454600000" lon="-72.275480000">
<ele>0</ele>
<time>2026-09-04T06:42:50Z</time>
</trkpt>
<trkpt lat="46.454180000" lon="-72.275930000">
<ele>0</ele>
<time>2026-09-04T06:42:51Z</time>
</trkpt>
<trkpt lat="46.453910000" lon="-72.276260000">
<ele>0</ele>
<time>2026-09-04T06:42:52Z</time>
</trkpt>
<trkpt lat="46.453700000" lon="-72.276550000">
<ele>0</ele>
<time>2026-09-04T06:42:53Z</time>
</trkpt>
<trkpt lat="46.453460000" lon="-72.276930000">
<ele>0</ele>
<time>2026-09-04T06:42:54Z</time>
</trkpt>
<trkpt lat="46.453020000" lon="-72.277730000">
<ele>0</ele>
<time>2026-09-04T06:42:55Z</time>
</trkpt>
<trkpt lat="46.452820000" lon="-72.278130000">
<ele>0</ele>
<time>2026-09-04T06:42:56Z</time>
</trkpt>
<trkpt lat="46.452640000" lon="-72.278590000">
<ele>0</ele>
<time>2026-09-04T06:42:57Z</time>
</trkpt>
<trkpt lat="46.452480000" lon="-72.279020000">
<ele>0</ele>
<time>2026-09-04T06:42:58Z</time>
</trkpt>
<trkpt lat="46.452120000" lon="-72.280100000">
<ele>0</ele>
<time>2026-09-04T06:42:59Z</time>
</trkpt>
<trkpt lat="46.451890000" lon="-72.281030000">
<ele>0</ele>
<time>2026-09-04T06:43:00Z</time>
</trkpt>
<trkpt lat="46.451570000" lon="-72.282140000">
<ele>0</ele>
<time>2026-09-04T06:43:01Z</time>
</trkpt>
<trkpt lat="46.451040000" lon="-72.283510000">
<ele>0</ele>
<time>2026-09-04T06:43:02Z</time>
</trkpt>
<trkpt lat="46.450780000" lon="-72.284040000">
<ele>0</ele>
<time>2026-09-04T06:43:03Z</time>
</trkpt>
<trkpt lat="46.450330000" lon="-72.284850000">
<ele>0</ele>
<time>2026-09-04T06:43:04Z</time>
</trkpt>
<trkpt lat="46.450010000" lon="-72.285360000">
<ele>0</ele>
<time>2026-09-04T06:43:05Z</time>
</trkpt>
<trkpt lat="46.449540000" lon="-72.285950000">
<ele>0</ele>
<time>2026-09-04T06:43:06Z</time>
</trkpt>
<trkpt lat="46.448900000" lon="-72.286600000">
<ele>0</ele>
<time>2026-09-04T06:43:07Z</time>
</trkpt>
<trkpt lat="46.448740000" lon="-72.286800000">
<ele>0</ele>
<time>2026-09-04T06:43:08Z</time>
</trkpt>
<trkpt lat="46.448370000" lon="-72.287160000">
<ele>0</ele>
<time>2026-09-04T06:43:09Z</time>
</trkpt>
<trkpt lat="46.448080000" lon="-72.287490000">
<ele>0</ele>
<time>2026-09-04T06:43:10Z</time>
</trkpt>
<trkpt lat="46.447870000" lon="-72.287740000">
<ele>0</ele>
<time>2026-09-04T06:43:11Z</time>
</trkpt>
<trkpt lat="46.447590000" lon="-72.288180000">
<ele>0</ele>
<time>2026-09-04T06:43:12Z</time>
</trkpt>
<trkpt lat="46.447380000" lon="-72.288580000">
<ele>0</ele>
<time>2026-09-04T06:43:13Z</time>
</trkpt>
<trkpt lat="46.447170000" lon="-72.289070000">
<ele>0</ele>
<time>2026-09-04T06:43:14Z</time>
</trkpt>
<trkpt lat="46.447040000" lon="-72.289430000">
<ele>0</ele>
<time>2026-09-04T06:43:15Z</time>
</trkpt>
<trkpt lat="46.446910000" lon="-72.289910000">
<ele>0</ele>
<time>2026-09-04T06:43:16Z</time>
</trkpt>
<trkpt lat="46.446810000" lon="-72.290390000">
<ele>0</ele>
<time>2026-09-04T06:43:17Z</time>
</trkpt>
<trkpt lat="46.446690000" lon="-72.291460000">
<ele>0</ele>
<time>2026-09-04T06:43:18Z</time>
</trkpt>
<trkpt lat="46.446450000" lon="-72.294530000">
<ele>0</ele>
<time>2026-09-04T06:43:19Z</time>
</trkpt>
<trkpt lat="46.446360000" lon="-72.295480000">
<ele>0</ele>
<time>2026-09-04T06:43:20Z</time>
</trkpt>
<trkpt lat="46.446240000" lon="-72.296540000">
<ele>0</ele>
<time>2026-09-04T06:43:21Z</time>
</trkpt>
<trkpt lat="46.446080000" lon="-72.297560000">
<ele>0</ele>
<time>2026-09-04T06:43:22Z</time>
</trkpt>
<trkpt lat="46.445650000" lon="-72.299750000">
<ele>0</ele>
<time>2026-09-04T06:43:23Z</time>
</trkpt>
<trkpt lat="46.445460000" lon="-72.300940000">
<ele>0</ele>
<time>2026-09-04T06:43:24Z</time>
</trkpt>
<trkpt lat="46.445390000" lon="-72.301570000">
<ele>0</ele>
<time>2026-09-04T06:43:25Z</time>
</trkpt>
<trkpt lat="46.445280000" lon="-72.302870000">
<ele>0</ele>
<time>2026-09-04T06:43:26Z</time>
</trkpt>
<trkpt lat="46.445140000" lon="-72.304450000">
<ele>0</ele>
<time>2026-09-04T06:43:27Z</time>
</trkpt>
<trkpt lat="46.445040000" lon="-72.305300000">
<ele>0</ele>
<time>2026-09-04T06:43:28Z</time>
</trkpt>
<trkpt lat="46.444850000" lon="-72.306660000">
<ele>0</ele>
<time>2026-09-04T06:43:29Z</time>
</trkpt>
<trkpt lat="46.444670000" lon="-72.307890000">
<ele>0</ele>
<time>2026-09-04T06:43:30Z</time>
</trkpt>
<trkpt lat="46.444640000" lon="-72.308090000">
<ele>0</ele>
<time>2026-09-04T06:43:31Z</time>
</trkpt>
<trkpt lat="46.444640000" lon="-72.308090000">
<ele>0</ele>
<time>2026-09-04T06:43:32Z</time>
</trkpt>
<trkpt lat="46.443460000" lon="-72.315990000">
<ele>0</ele>
<time>2026-09-04T06:43:33Z</time>
</trkpt>
<trkpt lat="46.443180000" lon="-72.317890000">
<ele>0</ele>
<time>2026-09-04T06:43:34Z</time>
</trkpt>
<trkpt lat="46.443180000" lon="-72.317890000">
<ele>0</ele>
<time>2026-09-04T06:43:35Z</time>
</trkpt>
<trkpt lat="46.443020000" lon="-72.319390000">
<ele>0</ele>
<time>2026-09-04T06:43:36Z</time>
</trkpt>
<trkpt lat="46.442910000" lon="-72.320880000">
<ele>0</ele>
<time>2026-09-04T06:43:37Z</time>
</trkpt>
<trkpt lat="46.442810000" lon="-72.323380000">
<ele>0</ele>
<time>2026-09-04T06:43:38Z</time>
</trkpt>
<trkpt lat="46.442750000" lon="-72.324710000">
<ele>0</ele>
<time>2026-09-04T06:43:39Z</time>
</trkpt>
<trkpt lat="46.442680000" lon="-72.325580000">
<ele>0</ele>
<time>2026-09-04T06:43:40Z</time>
</trkpt>
<trkpt lat="46.442580000" lon="-72.326530000">
<ele>0</ele>
<time>2026-09-04T06:43:41Z</time>
</trkpt>
<trkpt lat="46.442470000" lon="-72.327380000">
<ele>0</ele>
<time>2026-09-04T06:43:42Z</time>
</trkpt>
<trkpt lat="46.442270000" lon="-72.329030000">
<ele>0</ele>
<time>2026-09-04T06:43:43Z</time>
</trkpt>
<trkpt lat="46.442220000" lon="-72.329820000">
<ele>0</ele>
<time>2026-09-04T06:43:44Z</time>
</trkpt>
<trkpt lat="46.442160000" lon="-72.330910000">
<ele>0</ele>
<time>2026-09-04T06:43:45Z</time>
</trkpt>
<trkpt lat="46.442140000" lon="-72.332680000">
<ele>0</ele>
<time>2026-09-04T06:43:46Z</time>
</trkpt>
<trkpt lat="46.442100000" lon="-72.333540000">
<ele>0</ele>
<time>2026-09-04T06:43:47Z</time>
</trkpt>
<trkpt lat="46.442030000" lon="-72.334500000">
<ele>0</ele>
<time>2026-09-04T06:43:48Z</time>
</trkpt>
<trkpt lat="46.441970000" lon="-72.335170000">
<ele>0</ele>
<time>2026-09-04T06:43:49Z</time>
</trkpt>
<trkpt lat="46.441930000" lon="-72.335960000">
<ele>0</ele>
<time>2026-09-04T06:43:50Z</time>
</trkpt>
<trkpt lat="46.441900000" lon="-72.336490000">
<ele>0</ele>
<time>2026-09-04T06:43:51Z</time>
</trkpt>
<trkpt lat="46.441780000" lon="-72.337400000">
<ele>0</ele>
<time>2026-09-04T06:43:52Z</time>
</trkpt>
<trkpt lat="46.441560000" lon="-72.338830000">
<ele>0</ele>
<time>2026-09-04T06:43:53Z</time>
</trkpt>
<trkpt lat="46.441430000" lon="-72.339870000">
<ele>0</ele>
<time>2026-09-04T06:43:54Z</time>
</trkpt>
<trkpt lat="46.441150000" lon="-72.342390000">
<ele>0</ele>
<time>2026-09-04T06:43:55Z</time>
</trkpt>
<trkpt lat="46.440990000" lon="-72.343740000">
<ele>0</ele>
<time>2026-09-04T06:43:56Z</time>
</trkpt>
<trkpt lat="46.440840000" lon="-72.345010000">
<ele>0</ele>
<time>2026-09-04T06:43:57Z</time>
</trkpt>
<trkpt lat="46.440960000" lon="-72.345060000">
<ele>0</ele>
<time>2026-09-04T06:43:58Z</time>
</trkpt>
<trkpt lat="46.441140000" lon="-72.345240000">
<ele>0</ele>
<time>2026-09-04T06:43:59Z</time>
</trkpt>
<trkpt lat="46.441260000" lon="-72.345390000">
<ele>0</ele>
<time>2026-09-04T06:44:00Z</time>
</trkpt>
<trkpt lat="46.441510000" lon="-72.345740000">
<ele>0</ele>
<time>2026-09-04T06:44:01Z</time>
</trkpt>
<trkpt lat="46.441810000" lon="-72.346190000">
<ele>0</ele>
<time>2026-09-04T06:44:02Z</time>
</trkpt>
<trkpt lat="46.441810000" lon="-72.346200000">
<ele>0</ele>
<time>2026-09-04T06:44:03Z</time>
</trkpt>
<trkpt lat="46.446030000" lon="-72.352100000">
<ele>0</ele>
<time>2026-09-04T06:44:04Z</time>
</trkpt>
<trkpt lat="46.450800000" lon="-72.358820000">
<ele>0</ele>
<time>2026-09-04T06:44:05Z</time>
</trkpt>
<trkpt lat="46.452300000" lon="-72.360920000">
<ele>0</ele>
<time>2026-09-04T06:44:06Z</time>
</trkpt>
<trkpt lat="46.453150000" lon="-72.362060000">
<ele>0</ele>
<time>2026-09-04T06:44:07Z</time>
</trkpt>
<trkpt lat="46.453570000" lon="-72.362550000">
<ele>0</ele>
<time>2026-09-04T06:44:08Z</time>
</trkpt>
<trkpt lat="46.454110000" lon="-72.363110000">
<ele>0</ele>
<time>2026-09-04T06:44:09Z</time>
</trkpt>
<trkpt lat="46.454530000" lon="-72.363510000">
<ele>0</ele>
<time>2026-09-04T06:44:10Z</time>
</trkpt>
<trkpt lat="46.455290000" lon="-72.364210000">
<ele>0</ele>
<time>2026-09-04T06:44:11Z</time>
</trkpt>
<trkpt lat="46.455900000" lon="-72.364770000">
<ele>0</ele>
<time>2026-09-04T06:44:12Z</time>
</trkpt>
<trkpt lat="46.456440000" lon="-72.365320000">
<ele>0</ele>
<time>2026-09-04T06:44:13Z</time>
</trkpt>
<trkpt lat="46.456750000" lon="-72.365730000">
<ele>0</ele>
<time>2026-09-04T06:44:14Z</time>
</trkpt>
<trkpt lat="46.457150000" lon="-72.366270000">
<ele>0</ele>
<time>2026-09-04T06:44:15Z</time>
</trkpt>
<trkpt lat="46.457390000" lon="-72.366640000">
<ele>0</ele>
<time>2026-09-04T06:44:16Z</time>
</trkpt>
<trkpt lat="46.458390000" lon="-72.368150000">
<ele>0</ele>
<time>2026-09-04T06:44:17Z</time>
</trkpt>
<trkpt lat="46.459010000" lon="-72.369090000">
<ele>0</ele>
<time>2026-09-04T06:44:18Z</time>
</trkpt>
<trkpt lat="46.459760000" lon="-72.370220000">
<ele>0</ele>
<time>2026-09-04T06:44:19Z</time>
</trkpt>
<trkpt lat="46.462660000" lon="-72.374590000">
<ele>0</ele>
<time>2026-09-04T06:44:20Z</time>
</trkpt>
<trkpt lat="46.464790000" lon="-72.377710000">
<ele>0</ele>
<time>2026-09-04T06:44:21Z</time>
</trkpt>
<trkpt lat="46.465290000" lon="-72.378450000">
<ele>0</ele>
<time>2026-09-04T06:44:22Z</time>
</trkpt>
<trkpt lat="46.466310000" lon="-72.380040000">
<ele>0</ele>
<time>2026-09-04T06:44:23Z</time>
</trkpt>
<trkpt lat="46.466800000" lon="-72.380760000">
<ele>0</ele>
<time>2026-09-04T06:44:24Z</time>
</trkpt>
<trkpt lat="46.467900000" lon="-72.382450000">
<ele>0</ele>
<time>2026-09-04T06:44:25Z</time>
</trkpt>
<trkpt lat="46.469570000" lon="-72.384990000">
<ele>0</ele>
<time>2026-09-04T06:44:26Z</time>
</trkpt>
<trkpt lat="46.470050000" lon="-72.385640000">
<ele>0</ele>
<time>2026-09-04T06:44:27Z</time>
</trkpt>
<trkpt lat="46.471040000" lon="-72.386800000">
<ele>0</ele>
<time>2026-09-04T06:44:28Z</time>
</trkpt>
<trkpt lat="46.471600000" lon="-72.387420000">
<ele>0</ele>
<time>2026-09-04T06:44:29Z</time>
</trkpt>
<trkpt lat="46.472740000" lon="-72.388690000">
<ele>0</ele>
<time>2026-09-04T06:44:30Z</time>
</trkpt>
<trkpt lat="46.474750000" lon="-72.390900000">
<ele>0</ele>
<time>2026-09-04T06:44:31Z</time>
</trkpt>
<trkpt lat="46.478040000" lon="-72.394540000">
<ele>0</ele>
<time>2026-09-04T06:44:32Z</time>
</trkpt>
<trkpt lat="46.480900000" lon="-72.397710000">
<ele>0</ele>
<time>2026-09-04T06:44:33Z</time>
</trkpt>
<trkpt lat="46.482530000" lon="-72.399550000">
<ele>0</ele>
<time>2026-09-04T06:44:34Z</time>
</trkpt>
<trkpt lat="46.483130000" lon="-72.400350000">
<ele>0</ele>
<time>2026-09-04T06:44:35Z</time>
</trkpt>
<trkpt lat="46.484760000" lon="-72.402780000">
<ele>0</ele>
<time>2026-09-04T06:44:36Z</time>
</trkpt>
<trkpt lat="46.488590000" lon="-72.408490000">
<ele>0</ele>
<time>2026-09-04T06:44:37Z</time>
</trkpt>
<trkpt lat="46.489370000" lon="-72.409720000">
<ele>0</ele>
<time>2026-09-04T06:44:38Z</time>
</trkpt>
<trkpt lat="46.489730000" lon="-72.410260000">
<ele>0</ele>
<time>2026-09-04T06:44:39Z</time>
</trkpt>
<trkpt lat="46.490240000" lon="-72.411010000">
<ele>0</ele>
<time>2026-09-04T06:44:40Z</time>
</trkpt>
<trkpt lat="46.491260000" lon="-72.412540000">
<ele>0</ele>
<time>2026-09-04T06:44:41Z</time>
</trkpt>
<trkpt lat="46.492610000" lon="-72.414570000">
<ele>0</ele>
<time>2026-09-04T06:44:42Z</time>
</trkpt>
<trkpt lat="46.493600000" lon="-72.416060000">
<ele>0</ele>
<time>2026-09-04T06:44:43Z</time>
</trkpt>
<trkpt lat="46.495900000" lon="-72.419510000">
<ele>0</ele>
<time>2026-09-04T06:44:44Z</time>
</trkpt>
<trkpt lat="46.496040000" lon="-72.419330000">
<ele>0</ele>
<time>2026-09-04T06:44:45Z</time>
</trkpt>
<trkpt lat="46.496040000" lon="-72.419330000">
<ele>0</ele>
<time>2026-09-04T06:44:46Z</time>
</trkpt>
<trkpt lat="46.496310000" lon="-72.418950000">
<ele>0</ele>
<time>2026-09-04T06:44:47Z</time>
</trkpt>
<trkpt lat="46.496430000" lon="-72.419110000">
<ele>0</ele>
<time>2026-09-04T06:44:48Z</time>
</trkpt>
<trkpt lat="46.496430000" lon="-72.419110000">
<ele>0</ele>
<time>2026-09-04T06:44:49Z</time>
</trkpt>
<trkpt lat="46.496670000" lon="-72.419460000">
<ele>0</ele>
<time>2026-09-04T06:44:50Z</time>
</trkpt>
</trkseg>
</trk>
</gpx>
